DLH560 EDDF-FNBJ
Flight info
| Callsign | DLH560 |
|---|---|
| Flight time | 7h 55m |
| Altitude | 37000 |
| Route | ANEKI6E ANEKI Y163 NATOR DCT TRA DCT RIPUS DCT GERSA DCT SOSON DCT ODINA DCT PIDAD DCT TALEP DCT VAREK DCT ERPIN DCT ETOIL DCT CIRTA UA605 CSO/N0463F390 UR978 AS UA604 DLA UG861 MESIN UY339 LIKAD UR526 VNA |
| Aircraft | A333/H-SDE3GHIJ2J3J5M1RVWXY/LB2D1 |
Departure
| Time | 2026-05-05 00:28 |
|---|---|
| Airport | Frankfurt Main Airport (EDDF) |
Arrival
| Time | 2026-05-05 08:23 |
|---|---|
| Airport | Dr. Antonio Agostinho Neto International Airport (FNBJ) |
| Time | Latitude | Longitude | Altitude | Speed | Heading |
|---|---|---|---|---|---|
| 2026-05-05 00:17 | 50.04637 | 8.56507 | 359 ft | 0 kts | 204° |
| 2026-05-05 00:18 | 50.04631 | 8.56503 | 358 ft | 1 kts | 204° |
| 2026-05-05 00:18 | 50.04620 | 8.56495 | 359 ft | 2 kts | 205° |
| 2026-05-05 00:18 | 50.04598 | 8.56478 | 359 ft | 4 kts | 206° |
| 2026-05-05 00:18 | 50.04549 | 8.56437 | 357 ft | 11 kts | 211° |
| 2026-05-05 00:19 | 50.04504 | 8.56329 | 359 ft | 14 kts | 250° |
| 2026-05-05 00:19 | 50.04472 | 8.56195 | 358 ft | 12 kts | 249° |
| 2026-05-05 00:19 | 50.04441 | 8.56074 | 359 ft | 12 kts | 245° |
| 2026-05-05 00:19 | 50.04379 | 8.56034 | 354 ft | 10 kts | 158° |
| 2026-05-05 00:20 | 50.04315 | 8.56072 | 353 ft | 9 kts | 162° |
| 2026-05-05 00:20 | 50.04256 | 8.56048 | 356 ft | 9 kts | 201° |
| 2026-05-05 00:20 | 50.04197 | 8.56057 | 356 ft | 9 kts | 162° |
| 2026-05-05 00:20 | 50.04138 | 8.56089 | 357 ft | 9 kts | 161° |
| 2026-05-05 00:21 | 50.04087 | 8.56079 | 357 ft | 7 kts | 221° |
| 2026-05-05 00:21 | 50.04064 | 8.56012 | 354 ft | 8 kts | 248° |
| 2026-05-05 00:21 | 50.04041 | 8.55917 | 354 ft | 11 kts | 250° |
| 2026-05-05 00:21 | 50.04016 | 8.55807 | 356 ft | 11 kts | 249° |
| 2026-05-05 00:22 | 50.03988 | 8.55694 | 354 ft | 11 kts | 249° |
| 2026-05-05 00:22 | 50.03960 | 8.55575 | 357 ft | 12 kts | 249° |
| 2026-05-05 00:22 | 50.03931 | 8.55454 | 357 ft | 12 kts | 249° |
| 2026-05-05 00:22 | 50.03901 | 8.55330 | 359 ft | 12 kts | 249° |
| 2026-05-05 00:23 | 50.03871 | 8.55203 | 358 ft | 13 kts | 250° |
| 2026-05-05 00:23 | 50.03841 | 8.55074 | 351 ft | 13 kts | 250° |
| 2026-05-05 00:23 | 50.03809 | 8.54941 | 355 ft | 13 kts | 249° |
| 2026-05-05 00:23 | 50.03776 | 8.54805 | 356 ft | 14 kts | 249° |
| 2026-05-05 00:24 | 50.03742 | 8.54665 | 356 ft | 14 kts | 249° |
| 2026-05-05 00:24 | 50.03708 | 8.54522 | 354 ft | 14 kts | 250° |
| 2026-05-05 00:24 | 50.03674 | 8.54375 | 356 ft | 15 kts | 250° |
| 2026-05-05 00:24 | 50.03637 | 8.54226 | 355 ft | 15 kts | 249° |
| 2026-05-05 00:25 | 50.03601 | 8.54074 | 359 ft | 15 kts | 250° |
| 2026-05-05 00:25 | 50.03563 | 8.53918 | 356 ft | 15 kts | 250° |
| 2026-05-05 00:25 | 50.03526 | 8.53760 | 355 ft | 16 kts | 250° |
| 2026-05-05 00:25 | 50.03488 | 8.53599 | 357 ft | 15 kts | 250° |
| 2026-05-05 00:26 | 50.03444 | 8.53459 | 359 ft | 13 kts | 218° |
| 2026-05-05 00:26 | 50.03374 | 8.53490 | 359 ft | 11 kts | 132° |
| 2026-05-05 00:26 | 50.03326 | 8.53587 | 359 ft | 12 kts | 127° |
| 2026-05-05 00:26 | 50.03317 | 8.53695 | 355 ft | 11 kts | 71° |
| 2026-05-05 00:27 | 50.03383 | 8.53972 | 359 ft | 54 kts | 70° |
| 2026-05-05 00:27 | 50.03584 | 8.54813 | 357 ft | 111 kts | 70° |
| 2026-05-05 00:27 | 50.03916 | 8.56202 | 358 ft | 162 kts | 70° |
| 2026-05-05 00:27 | 50.04307 | 8.57953 | 853 ft | 172 kts | 71° |
| 2026-05-05 00:28 | 50.04687 | 8.59677 | 1732 ft | 164 kts | 70° |
| 2026-05-05 00:28 | 50.04866 | 8.61418 | 2140 ft | 170 kts | 97° |
| 2026-05-05 00:28 | 50.04352 | 8.63141 | 2342 ft | 188 kts | 134° |
| 2026-05-05 00:28 | 50.03150 | 8.64069 | 2551 ft | 206 kts | 174° |
| 2026-05-05 00:29 | 50.01671 | 8.63916 | 2802 ft | 223 kts | 189° |
| 2026-05-05 00:29 | 50.00166 | 8.63310 | 3180 ft | 234 kts | 204° |
| 2026-05-05 00:29 | 49.98852 | 8.61799 | 3768 ft | 235 kts | 229° |
| 2026-05-05 00:29 | 49.97751 | 8.59931 | 4424 ft | 234 kts | 219° |
| 2026-05-05 00:30 | 49.96342 | 8.58599 | 4871 ft | 244 kts | 204° |
| 2026-05-05 00:30 | 49.94738 | 8.57606 | 5262 ft | 252 kts | 200° |
| 2026-05-05 00:30 | 49.93083 | 8.56679 | 5817 ft | 255 kts | 200° |
| 2026-05-05 00:30 | 49.91409 | 8.55749 | 6460 ft | 255 kts | 200° |
| 2026-05-05 00:31 | 49.89738 | 8.54816 | 7042 ft | 256 kts | 200° |
| 2026-05-05 00:31 | 49.88048 | 8.53919 | 7611 ft | 259 kts | 196° |
| 2026-05-05 00:31 | 49.86252 | 8.53570 | 8217 ft | 262 kts | 182° |
| 2026-05-05 00:31 | 49.84421 | 8.53636 | 8831 ft | 264 kts | 180° |
| 2026-05-05 00:32 | 49.82583 | 8.53780 | 9433 ft | 266 kts | 180° |
| 2026-05-05 00:32 | 49.80718 | 8.53931 | 10007 ft | 269 kts | 180° |
| 2026-05-05 00:32 | 49.78813 | 8.54065 | 10317 ft | 280 kts | 181° |
| 2026-05-05 00:32 | 49.76820 | 8.53960 | 10550 ft | 293 kts | 186° |
| 2026-05-05 00:33 | 49.74748 | 8.53705 | 10781 ft | 306 kts | 186° |
| 2026-05-05 00:33 | 49.72580 | 8.53412 | 10993 ft | 319 kts | 186° |
| 2026-05-05 00:33 | 49.70336 | 8.53109 | 11224 ft | 331 kts | 186° |
| 2026-05-05 00:33 | 49.68000 | 8.52796 | 11499 ft | 341 kts | 186° |
| 2026-05-05 00:34 | 49.65608 | 8.52479 | 11909 ft | 346 kts | 186° |
| 2026-05-05 00:34 | 49.63192 | 8.52160 | 12345 ft | 351 kts | 186° |
| 2026-05-05 00:34 | 49.60752 | 8.51839 | 12796 ft | 354 kts | 185° |
| 2026-05-05 00:34 | 49.58284 | 8.51514 | 13269 ft | 357 kts | 185° |
| 2026-05-05 00:35 | 49.55797 | 8.51188 | 13730 ft | 360 kts | 185° |
| 2026-05-05 00:35 | 49.53286 | 8.50858 | 14149 ft | 363 kts | 185° |
| 2026-05-05 00:35 | 49.50761 | 8.50526 | 14592 ft | 365 kts | 185° |
| 2026-05-05 00:35 | 49.48223 | 8.50194 | 15033 ft | 367 kts | 185° |
| 2026-05-05 00:36 | 49.45671 | 8.49859 | 15464 ft | 369 kts | 186° |
| 2026-05-05 00:36 | 49.43108 | 8.49524 | 15897 ft | 371 kts | 186° |
| 2026-05-05 00:36 | 49.40525 | 8.49186 | 16295 ft | 374 kts | 186° |
| 2026-05-05 00:36 | 49.37927 | 8.48846 | 16728 ft | 376 kts | 186° |
| 2026-05-05 00:37 | 49.35335 | 8.48508 | 17163 ft | 377 kts | 186° |
| 2026-05-05 00:37 | 49.32694 | 8.48164 | 17593 ft | 379 kts | 186° |
| 2026-05-05 00:37 | 49.30058 | 8.47820 | 18016 ft | 381 kts | 186° |
| 2026-05-05 00:37 | 49.27409 | 8.47474 | 18395 ft | 383 kts | 186° |
| 2026-05-05 00:38 | 49.24746 | 8.47127 | 18752 ft | 385 kts | 186° |
| 2026-05-05 00:38 | 49.22073 | 8.46778 | 19109 ft | 386 kts | 187° |
| 2026-05-05 00:38 | 49.19390 | 8.46429 | 19425 ft | 389 kts | 187° |
| 2026-05-05 00:38 | 49.16683 | 8.46076 | 19748 ft | 391 kts | 187° |
| 2026-05-05 00:39 | 49.13969 | 8.45724 | 20103 ft | 392 kts | 187° |
| 2026-05-05 00:39 | 49.11241 | 8.45371 | 20452 ft | 394 kts | 187° |
| 2026-05-05 00:39 | 49.08508 | 8.45015 | 20796 ft | 395 kts | 188° |
| 2026-05-05 00:39 | 49.05788 | 8.44405 | 21138 ft | 395 kts | 192° |
| 2026-05-05 00:40 | 49.03085 | 8.43601 | 21474 ft | 396 kts | 194° |
| 2026-05-05 00:40 | 49.00386 | 8.42715 | 21817 ft | 398 kts | 194° |
| 2026-05-05 00:40 | 48.97681 | 8.41780 | 22128 ft | 399 kts | 195° |
| 2026-05-05 00:40 | 48.94968 | 8.40821 | 22446 ft | 401 kts | 195° |
| 2026-05-05 00:41 | 48.92278 | 8.39868 | 22775 ft | 403 kts | 195° |
| 2026-05-05 00:41 | 48.89546 | 8.38905 | 23109 ft | 404 kts | 195° |
| 2026-05-05 00:41 | 48.86801 | 8.37943 | 23437 ft | 406 kts | 195° |
| 2026-05-05 00:41 | 48.84040 | 8.36982 | 23737 ft | 407 kts | 195° |
| 2026-05-05 00:42 | 48.81273 | 8.36021 | 24032 ft | 409 kts | 195° |
| 2026-05-05 00:42 | 48.78499 | 8.35055 | 24331 ft | 410 kts | 195° |
| 2026-05-05 00:42 | 48.75714 | 8.34058 | 24626 ft | 411 kts | 195° |
| 2026-05-05 00:42 | 48.72934 | 8.33045 | 24910 ft | 412 kts | 195° |
| 2026-05-05 00:43 | 48.70139 | 8.32020 | 25221 ft | 413 kts | 195° |
| 2026-05-05 00:43 | 48.67345 | 8.30995 | 25501 ft | 415 kts | 195° |
| 2026-05-05 00:43 | 48.64533 | 8.29965 | 25800 ft | 416 kts | 196° |
| 2026-05-05 00:43 | 48.61722 | 8.28939 | 26106 ft | 417 kts | 196° |
| 2026-05-05 00:44 | 48.58897 | 8.27911 | 26423 ft | 418 kts | 195° |
| 2026-05-05 00:44 | 48.56072 | 8.26885 | 26717 ft | 419 kts | 196° |
| 2026-05-05 00:44 | 48.53228 | 8.25863 | 27006 ft | 421 kts | 194° |
| 2026-05-05 00:44 | 48.50329 | 8.25154 | 27297 ft | 424 kts | 188° |
| 2026-05-05 00:45 | 48.47367 | 8.25034 | 27596 ft | 428 kts | 180° |
| 2026-05-05 00:45 | 48.44389 | 8.25452 | 27891 ft | 432 kts | 177° |
| 2026-05-05 00:45 | 48.41409 | 8.26066 | 28181 ft | 433 kts | 175° |
| 2026-05-05 00:45 | 48.38423 | 8.26783 | 28454 ft | 435 kts | 174° |
| 2026-05-05 00:46 | 48.35434 | 8.27547 | 28717 ft | 437 kts | 174° |
| 2026-05-05 00:46 | 48.32435 | 8.28321 | 28971 ft | 438 kts | 174° |
| 2026-05-05 00:46 | 48.29424 | 8.29088 | 29246 ft | 439 kts | 174° |
| 2026-05-05 00:46 | 48.26407 | 8.29842 | 29503 ft | 440 kts | 174° |
| 2026-05-05 00:47 | 48.23380 | 8.30586 | 29748 ft | 441 kts | 174° |
| 2026-05-05 00:47 | 48.20382 | 8.31312 | 30003 ft | 443 kts | 174° |
| 2026-05-05 00:47 | 48.17337 | 8.32044 | 30203 ft | 444 kts | 174° |
| 2026-05-05 00:47 | 48.14241 | 8.32790 | 30444 ft | 445 kts | 174° |
| 2026-05-05 00:48 | 48.12217 | 8.33278 | 30627 ft | 445 kts | 174° |
| 2026-05-05 00:48 | 48.08166 | 8.34259 | 30968 ft | 445 kts | 174° |
| 2026-05-05 00:48 | 48.05112 | 8.35000 | 31242 ft | 445 kts | 174° |
| 2026-05-05 00:48 | 48.02066 | 8.35738 | 31529 ft | 444 kts | 174° |
| 2026-05-05 00:49 | 47.99011 | 8.36477 | 31822 ft | 444 kts | 174° |
| 2026-05-05 00:49 | 47.95970 | 8.37212 | 32090 ft | 443 kts | 174° |
| 2026-05-05 00:49 | 47.92923 | 8.37946 | 32362 ft | 443 kts | 174° |
| 2026-05-05 00:49 | 47.89881 | 8.38679 | 32601 ft | 443 kts | 175° |
| 2026-05-05 00:50 | 47.87827 | 8.39173 | 32754 ft | 443 kts | 175° |
| 2026-05-05 00:50 | 47.84782 | 8.39904 | 33025 ft | 443 kts | 175° |
| 2026-05-05 00:50 | 47.81741 | 8.40633 | 33300 ft | 442 kts | 175° |
| 2026-05-05 00:50 | 47.78704 | 8.41361 | 33582 ft | 442 kts | 175° |
| 2026-05-05 00:51 | 47.75669 | 8.42088 | 33844 ft | 441 kts | 175° |
| 2026-05-05 00:51 | 47.72644 | 8.42811 | 34077 ft | 441 kts | 175° |
| 2026-05-05 00:51 | 47.69633 | 8.43526 | 34232 ft | 441 kts | 175° |
| 2026-05-05 00:51 | 47.66604 | 8.44130 | 34487 ft | 439 kts | 177° |
| 2026-05-05 00:52 | 47.63568 | 8.44618 | 34715 ft | 437 kts | 178° |
| 2026-05-05 00:52 | 47.60544 | 8.45047 | 34921 ft | 437 kts | 178° |
| 2026-05-05 00:52 | 47.57517 | 8.45458 | 35118 ft | 437 kts | 178° |
| 2026-05-05 00:52 | 47.54496 | 8.45869 | 35321 ft | 437 kts | 178° |
| 2026-05-05 00:53 | 47.51505 | 8.46285 | 35513 ft | 436 kts | 178° |
| 2026-05-05 00:53 | 47.48482 | 8.46716 | 35712 ft | 436 kts | 178° |
| 2026-05-05 00:53 | 47.45471 | 8.47151 | 35952 ft | 435 kts | 178° |
| 2026-05-05 00:53 | 47.42462 | 8.47591 | 36150 ft | 434 kts | 177° |
| 2026-05-05 00:54 | 47.39453 | 8.48032 | 36320 ft | 435 kts | 177° |
| 2026-05-05 00:54 | 47.36442 | 8.48474 | 36494 ft | 435 kts | 177° |
| 2026-05-05 00:54 | 47.33431 | 8.48915 | 36655 ft | 435 kts | 177° |
| 2026-05-05 00:54 | 47.30418 | 8.49355 | 36831 ft | 435 kts | 177° |
| 2026-05-05 00:55 | 47.27405 | 8.49795 | 36953 ft | 436 kts | 177° |
| 2026-05-05 00:55 | 47.21366 | 8.50677 | 36965 ft | 436 kts | 177° |
| 2026-05-05 00:56 | 47.15333 | 8.51557 | 36963 ft | 436 kts | 177° |
| 2026-05-05 00:56 | 47.09295 | 8.52434 | 36963 ft | 436 kts | 177° |
| 2026-05-05 00:57 | 47.03255 | 8.53309 | 36961 ft | 436 kts | 177° |
| 2026-05-05 00:57 | 46.97193 | 8.54182 | 36963 ft | 438 kts | 177° |
| 2026-05-05 00:58 | 46.91133 | 8.55057 | 36974 ft | 438 kts | 177° |
| 2026-05-05 00:58 | 46.85079 | 8.55927 | 36971 ft | 437 kts | 176° |
| 2026-05-05 00:59 | 46.79015 | 8.56801 | 36982 ft | 438 kts | 177° |
| 2026-05-05 00:59 | 46.72981 | 8.57661 | 37015 ft | 439 kts | 177° |
| 2026-05-05 01:00 | 46.66900 | 8.58528 | 37005 ft | 439 kts | 177° |
| 2026-05-05 01:00 | 46.60819 | 8.59396 | 37021 ft | 439 kts | 177° |
| 2026-05-05 01:01 | 46.54740 | 8.60261 | 37031 ft | 439 kts | 177° |
| 2026-05-05 01:01 | 46.48649 | 8.61122 | 37041 ft | 440 kts | 177° |
| 2026-05-05 01:02 | 46.42554 | 8.61982 | 37038 ft | 440 kts | 176° |
| 2026-05-05 01:02 | 46.36460 | 8.62842 | 37048 ft | 440 kts | 177° |
| 2026-05-05 01:03 | 46.30373 | 8.63701 | 37048 ft | 440 kts | 177° |
| 2026-05-05 01:03 | 46.24282 | 8.64556 | 37043 ft | 439 kts | 177° |
| 2026-05-05 01:04 | 46.18190 | 8.65409 | 37047 ft | 441 kts | 177° |
| 2026-05-05 01:04 | 46.09009 | 8.66596 | 37058 ft | 441 kts | 179° |
| 2026-05-05 01:05 | 46.02932 | 8.66799 | 37035 ft | 440 kts | 182° |
| 2026-05-05 01:05 | 45.96802 | 8.66830 | 37012 ft | 440 kts | 182° |
| 2026-05-05 01:06 | 45.90692 | 8.66893 | 37013 ft | 440 kts | 182° |
| 2026-05-05 01:06 | 45.84558 | 8.67000 | 37031 ft | 440 kts | 181° |
| 2026-05-05 01:07 | 45.78426 | 8.67123 | 37005 ft | 441 kts | 182° |
| 2026-05-05 01:07 | 45.72301 | 8.67247 | 37017 ft | 442 kts | 182° |
| 2026-05-05 01:08 | 45.66148 | 8.67369 | 37021 ft | 442 kts | 182° |
| 2026-05-05 01:08 | 45.60000 | 8.67490 | 37019 ft | 442 kts | 182° |
| 2026-05-05 01:09 | 45.53850 | 8.67610 | 37021 ft | 442 kts | 182° |
| 2026-05-05 01:09 | 45.47702 | 8.67730 | 37021 ft | 442 kts | 182° |
| 2026-05-05 01:10 | 45.41556 | 8.67850 | 37046 ft | 442 kts | 182° |
| 2026-05-05 01:10 | 45.35410 | 8.67969 | 37048 ft | 442 kts | 182° |
| 2026-05-05 01:11 | 45.29263 | 8.68088 | 37048 ft | 442 kts | 182° |
| 2026-05-05 01:11 | 45.23115 | 8.68207 | 37042 ft | 442 kts | 183° |
| 2026-05-05 01:12 | 45.16974 | 8.68326 | 37018 ft | 441 kts | 183° |
| 2026-05-05 01:12 | 45.10838 | 8.68444 | 37020 ft | 441 kts | 183° |
| 2026-05-05 01:13 | 45.04723 | 8.68562 | 37015 ft | 441 kts | 183° |
| 2026-05-05 01:13 | 44.98615 | 8.68679 | 37015 ft | 440 kts | 183° |
| 2026-05-05 01:14 | 44.92492 | 8.68795 | 37015 ft | 440 kts | 183° |
| 2026-05-05 01:14 | 44.86359 | 8.68913 | 37018 ft | 440 kts | 183° |
| 2026-05-05 01:15 | 44.80229 | 8.69029 | 37016 ft | 441 kts | 183° |
| 2026-05-05 01:15 | 44.74079 | 8.69147 | 37015 ft | 442 kts | 183° |
| 2026-05-05 01:16 | 44.67935 | 8.69263 | 37017 ft | 442 kts | 183° |
| 2026-05-05 01:16 | 44.61781 | 8.69381 | 37014 ft | 442 kts | 183° |
| 2026-05-05 01:17 | 44.55631 | 8.69497 | 37017 ft | 442 kts | 183° |
| 2026-05-05 01:17 | 44.49479 | 8.69612 | 37019 ft | 442 kts | 183° |
| 2026-05-05 01:18 | 44.43370 | 8.69728 | 37019 ft | 442 kts | 183° |
| 2026-05-05 01:18 | 44.37213 | 8.69844 | 37019 ft | 442 kts | 183° |
| 2026-05-05 01:19 | 44.31065 | 8.69959 | 37016 ft | 442 kts | 183° |
| 2026-05-05 01:19 | 44.24906 | 8.70074 | 36992 ft | 442 kts | 183° |
| 2026-05-05 01:20 | 44.18748 | 8.70188 | 36987 ft | 443 kts | 183° |
| 2026-05-05 01:20 | 44.12593 | 8.70303 | 36984 ft | 443 kts | 183° |
| 2026-05-05 01:21 | 44.06434 | 8.70417 | 36980 ft | 442 kts | 183° |
| 2026-05-05 01:21 | 44.00284 | 8.70532 | 36979 ft | 442 kts | 183° |
| 2026-05-05 01:22 | 43.94132 | 8.70646 | 36974 ft | 442 kts | 183° |
| 2026-05-05 01:22 | 43.87984 | 8.70759 | 36969 ft | 441 kts | 184° |
| 2026-05-05 01:23 | 43.81853 | 8.70873 | 36971 ft | 440 kts | 184° |
| 2026-05-05 01:23 | 43.75782 | 8.70985 | 36971 ft | 439 kts | 184° |
| 2026-05-05 01:24 | 43.69668 | 8.71097 | 36956 ft | 439 kts | 184° |
| 2026-05-05 01:24 | 43.63569 | 8.71208 | 36968 ft | 437 kts | 184° |
| 2026-05-05 01:25 | 43.57496 | 8.71248 | 36970 ft | 436 kts | 185° |
| 2026-05-05 01:25 | 43.51429 | 8.71237 | 36968 ft | 436 kts | 185° |
| 2026-05-05 01:26 | 43.45372 | 8.71128 | 36969 ft | 433 kts | 189° |
| 2026-05-05 01:26 | 43.39561 | 8.69443 | 36963 ft | 424 kts | 204° |
| 2026-05-05 01:27 | 43.34189 | 8.66175 | 36966 ft | 422 kts | 208° |
| 2026-05-05 01:27 | 43.28945 | 8.62612 | 36969 ft | 422 kts | 209° |
| 2026-05-05 01:28 | 43.23680 | 8.59005 | 36963 ft | 421 kts | 209° |
| 2026-05-05 01:28 | 43.18432 | 8.55460 | 36968 ft | 421 kts | 209° |
| 2026-05-05 01:29 | 43.13162 | 8.51932 | 36963 ft | 421 kts | 209° |
| 2026-05-05 01:29 | 43.07894 | 8.48419 | 36957 ft | 421 kts | 209° |
| 2026-05-05 01:30 | 43.02621 | 8.44909 | 36962 ft | 421 kts | 209° |
| 2026-05-05 01:30 | 42.97346 | 8.41403 | 36962 ft | 421 kts | 209° |
| 2026-05-05 01:31 | 42.92075 | 8.37905 | 36942 ft | 422 kts | 209° |
| 2026-05-05 01:31 | 42.86805 | 8.34416 | 36960 ft | 420 kts | 209° |
| 2026-05-05 01:32 | 42.81571 | 8.30954 | 36956 ft | 422 kts | 208° |
| 2026-05-05 01:32 | 42.76280 | 8.27463 | 36956 ft | 423 kts | 208° |
| 2026-05-05 01:33 | 42.70986 | 8.23979 | 36941 ft | 422 kts | 209° |
| 2026-05-05 01:33 | 42.65712 | 8.20514 | 36957 ft | 420 kts | 209° |
| 2026-05-05 01:34 | 42.60457 | 8.17067 | 36953 ft | 419 kts | 209° |
| 2026-05-05 01:34 | 42.55200 | 8.13624 | 36953 ft | 419 kts | 209° |
| 2026-05-05 01:35 | 42.49943 | 8.10188 | 36952 ft | 420 kts | 209° |
| 2026-05-05 01:35 | 42.44682 | 8.06755 | 36955 ft | 420 kts | 209° |
| 2026-05-05 01:36 | 42.39421 | 8.03330 | 36952 ft | 420 kts | 209° |
| 2026-05-05 01:36 | 42.34158 | 7.99910 | 36953 ft | 420 kts | 209° |
| 2026-05-05 01:37 | 42.28889 | 7.96636 | 36962 ft | 420 kts | 206° |
| 2026-05-05 01:37 | 42.23468 | 7.93639 | 36959 ft | 422 kts | 205° |
| 2026-05-05 01:38 | 42.18002 | 7.90693 | 36955 ft | 423 kts | 205° |
| 2026-05-05 01:38 | 42.12544 | 7.87728 | 36943 ft | 423 kts | 206° |
| 2026-05-05 01:39 | 42.07095 | 7.84748 | 36957 ft | 422 kts | 206° |
| 2026-05-05 01:39 | 42.01657 | 7.81770 | 36959 ft | 422 kts | 206° |
| 2026-05-05 01:40 | 41.96215 | 7.78795 | 36964 ft | 422 kts | 206° |
| 2026-05-05 01:40 | 41.90771 | 7.75826 | 36961 ft | 422 kts | 206° |
| 2026-05-05 01:41 | 41.85337 | 7.72869 | 36963 ft | 421 kts | 206° |
| 2026-05-05 01:41 | 41.79907 | 7.69919 | 36963 ft | 421 kts | 206° |
| 2026-05-05 01:42 | 41.75391 | 7.67470 | 36966 ft | 421 kts | 206° |
| 2026-05-05 01:42 | 41.69961 | 7.64531 | 36964 ft | 421 kts | 206° |
| 2026-05-05 01:43 | 41.64539 | 7.61601 | 36971 ft | 420 kts | 206° |
| 2026-05-05 01:43 | 41.59113 | 7.58702 | 36984 ft | 421 kts | 204° |
| 2026-05-05 01:44 | 41.53380 | 7.56765 | 36969 ft | 428 kts | 196° |
| 2026-05-05 01:44 | 41.47503 | 7.55346 | 36970 ft | 429 kts | 195° |
| 2026-05-05 01:45 | 41.41610 | 7.54029 | 36977 ft | 429 kts | 195° |
| 2026-05-05 01:45 | 41.35721 | 7.52707 | 36977 ft | 429 kts | 195° |
| 2026-05-05 01:46 | 41.29834 | 7.51366 | 36972 ft | 429 kts | 196° |
| 2026-05-05 01:46 | 41.23957 | 7.50022 | 36983 ft | 428 kts | 196° |
| 2026-05-05 01:47 | 41.18086 | 7.48679 | 36985 ft | 428 kts | 196° |
| 2026-05-05 01:47 | 41.12258 | 7.47350 | 36984 ft | 428 kts | 196° |
| 2026-05-05 01:48 | 41.06383 | 7.46013 | 36988 ft | 428 kts | 196° |
| 2026-05-05 01:48 | 41.00524 | 7.44683 | 36995 ft | 427 kts | 196° |
| 2026-05-05 01:49 | 40.94666 | 7.43355 | 36995 ft | 427 kts | 196° |
| 2026-05-05 01:49 | 40.88802 | 7.42027 | 36976 ft | 427 kts | 196° |
| 2026-05-05 01:50 | 40.82958 | 7.40709 | 37002 ft | 425 kts | 196° |
| 2026-05-05 01:50 | 40.77135 | 7.39396 | 37004 ft | 424 kts | 197° |
| 2026-05-05 01:51 | 40.71312 | 7.38084 | 37004 ft | 425 kts | 197° |
| 2026-05-05 01:51 | 40.65488 | 7.36775 | 37002 ft | 424 kts | 197° |
| 2026-05-05 01:52 | 40.59674 | 7.35471 | 37005 ft | 424 kts | 197° |
| 2026-05-05 01:52 | 40.53901 | 7.34179 | 37006 ft | 423 kts | 197° |
| 2026-05-05 01:53 | 40.48094 | 7.32880 | 37011 ft | 424 kts | 197° |
| 2026-05-05 01:53 | 40.42281 | 7.31583 | 37009 ft | 424 kts | 197° |
| 2026-05-05 01:54 | 40.36471 | 7.30289 | 37013 ft | 424 kts | 197° |
| 2026-05-05 01:54 | 40.30657 | 7.28996 | 37016 ft | 423 kts | 197° |
| 2026-05-05 01:55 | 40.24848 | 7.27707 | 37016 ft | 424 kts | 197° |
| 2026-05-05 01:55 | 40.19028 | 7.26417 | 37020 ft | 425 kts | 197° |
| 2026-05-05 01:56 | 40.13193 | 7.25126 | 37019 ft | 425 kts | 197° |
| 2026-05-05 01:56 | 40.07362 | 7.23839 | 37023 ft | 425 kts | 197° |
| 2026-05-05 01:57 | 40.01526 | 7.22553 | 37014 ft | 425 kts | 197° |
| 2026-05-05 01:57 | 39.95673 | 7.21263 | 37019 ft | 427 kts | 197° |
| 2026-05-05 01:58 | 39.89801 | 7.19974 | 37020 ft | 428 kts | 197° |
| 2026-05-05 01:58 | 39.83932 | 7.18688 | 37021 ft | 428 kts | 197° |
| 2026-05-05 01:59 | 39.78056 | 7.17402 | 37021 ft | 429 kts | 197° |
| 2026-05-05 01:59 | 39.72147 | 7.16131 | 37031 ft | 432 kts | 196° |
| 2026-05-05 02:00 | 39.66184 | 7.15028 | 37025 ft | 433 kts | 195° |
| 2026-05-05 02:00 | 39.60208 | 7.13989 | 37017 ft | 433 kts | 195° |
| 2026-05-05 02:01 | 39.54233 | 7.12940 | 37027 ft | 434 kts | 195° |
| 2026-05-05 02:01 | 39.48243 | 7.11875 | 37028 ft | 435 kts | 195° |
| 2026-05-05 02:02 | 39.42285 | 7.10814 | 37028 ft | 435 kts | 195° |
| 2026-05-05 02:02 | 39.36291 | 7.09748 | 37005 ft | 435 kts | 195° |
| 2026-05-05 02:03 | 39.30282 | 7.08679 | 37029 ft | 438 kts | 195° |
| 2026-05-05 02:03 | 39.24239 | 7.07607 | 37029 ft | 438 kts | 195° |
| 2026-05-05 02:04 | 39.18199 | 7.06541 | 37028 ft | 438 kts | 195° |
| 2026-05-05 02:04 | 39.12155 | 7.05475 | 37020 ft | 439 kts | 195° |
| 2026-05-05 02:05 | 39.06091 | 7.04404 | 37028 ft | 440 kts | 195° |
| 2026-05-05 02:05 | 39.00016 | 7.03337 | 37026 ft | 441 kts | 195° |
| 2026-05-05 02:06 | 38.93928 | 7.02326 | 37030 ft | 441 kts | 194° |
| 2026-05-05 02:06 | 38.87831 | 7.01344 | 37026 ft | 443 kts | 195° |
| 2026-05-05 02:07 | 38.81703 | 7.00356 | 37029 ft | 444 kts | 195° |
| 2026-05-05 02:07 | 38.75569 | 6.99365 | 37029 ft | 444 kts | 195° |
| 2026-05-05 02:08 | 38.69438 | 6.98375 | 37029 ft | 444 kts | 195° |
| 2026-05-05 02:08 | 38.63298 | 6.97383 | 37029 ft | 445 kts | 195° |
| 2026-05-05 02:09 | 38.57145 | 6.96391 | 37029 ft | 446 kts | 195° |
| 2026-05-05 02:09 | 38.50991 | 6.95402 | 37031 ft | 446 kts | 195° |
| 2026-05-05 02:10 | 38.44835 | 6.94414 | 37018 ft | 446 kts | 195° |
| 2026-05-05 02:10 | 38.38719 | 6.93433 | 37031 ft | 446 kts | 195° |
| 2026-05-05 02:11 | 38.32556 | 6.92447 | 37032 ft | 446 kts | 195° |
| 2026-05-05 02:11 | 38.26392 | 6.91462 | 37031 ft | 446 kts | 195° |
| 2026-05-05 02:12 | 38.17142 | 6.89988 | 37030 ft | 447 kts | 195° |
| 2026-05-05 02:13 | 38.10978 | 6.89008 | 37030 ft | 447 kts | 195° |
| 2026-05-05 02:13 | 38.04811 | 6.88028 | 37029 ft | 447 kts | 195° |
| 2026-05-05 02:14 | 37.98645 | 6.87050 | 36993 ft | 446 kts | 194° |
| 2026-05-05 02:14 | 37.92482 | 6.86075 | 37029 ft | 446 kts | 194° |
| 2026-05-05 02:15 | 37.86325 | 6.85102 | 37030 ft | 446 kts | 194° |
| 2026-05-05 02:15 | 37.80165 | 6.84131 | 37048 ft | 446 kts | 195° |
| 2026-05-05 02:16 | 37.74009 | 6.83158 | 37009 ft | 446 kts | 194° |
| 2026-05-05 02:16 | 37.67822 | 6.82184 | 37022 ft | 449 kts | 194° |
| 2026-05-05 02:17 | 37.61616 | 6.81212 | 37040 ft | 449 kts | 194° |
| 2026-05-05 02:17 | 37.55406 | 6.80241 | 37024 ft | 449 kts | 194° |
| 2026-05-05 02:18 | 37.49240 | 6.79277 | 37019 ft | 450 kts | 194° |
| 2026-05-05 02:18 | 37.43014 | 6.78303 | 37027 ft | 452 kts | 194° |
| 2026-05-05 02:19 | 37.36733 | 6.77324 | 37024 ft | 452 kts | 194° |
| 2026-05-05 02:19 | 37.30491 | 6.76354 | 37020 ft | 452 kts | 194° |
| 2026-05-05 02:20 | 37.24256 | 6.75386 | 37017 ft | 451 kts | 194° |
| 2026-05-05 02:20 | 37.18075 | 6.74428 | 37019 ft | 450 kts | 194° |
| 2026-05-05 02:21 | 37.11855 | 6.73464 | 37018 ft | 450 kts | 194° |
| 2026-05-05 02:21 | 37.05637 | 6.72503 | 37018 ft | 450 kts | 194° |
| 2026-05-05 02:22 | 36.99411 | 6.71541 | 37016 ft | 451 kts | 193° |
| 2026-05-05 02:22 | 36.93175 | 6.70577 | 37020 ft | 452 kts | 194° |
| 2026-05-05 02:23 | 36.86941 | 6.69617 | 37022 ft | 452 kts | 193° |
| 2026-05-05 02:23 | 36.80704 | 6.68667 | 37024 ft | 451 kts | 193° |
| 2026-05-05 02:24 | 36.74460 | 6.67710 | 37027 ft | 453 kts | 193° |
| 2026-05-05 02:24 | 36.68207 | 6.66747 | 37021 ft | 453 kts | 193° |
| 2026-05-05 02:25 | 36.61946 | 6.65791 | 37028 ft | 453 kts | 193° |
| 2026-05-05 02:25 | 36.55688 | 6.64838 | 37025 ft | 453 kts | 193° |
| 2026-05-05 02:26 | 36.49471 | 6.63890 | 37056 ft | 453 kts | 193° |
| 2026-05-05 02:26 | 36.43207 | 6.62933 | 37067 ft | 454 kts | 193° |
| 2026-05-05 02:27 | 36.36944 | 6.61983 | 37076 ft | 453 kts | 193° |
| 2026-05-05 02:27 | 36.30674 | 6.61079 | 37057 ft | 456 kts | 190° |
| 2026-05-05 02:28 | 36.24282 | 6.61122 | 37073 ft | 461 kts | 184° |
| 2026-05-05 02:28 | 36.17867 | 6.61499 | 37074 ft | 462 kts | 183° |
| 2026-05-05 02:29 | 36.11449 | 6.61938 | 37069 ft | 462 kts | 183° |
| 2026-05-05 02:29 | 36.05030 | 6.62366 | 37049 ft | 462 kts | 183° |
| 2026-05-05 02:30 | 35.98615 | 6.62775 | 37055 ft | 462 kts | 184° |
| 2026-05-05 02:30 | 35.92200 | 6.63178 | 37050 ft | 462 kts | 184° |
| 2026-05-05 02:31 | 35.85783 | 6.63580 | 37050 ft | 462 kts | 184° |
| 2026-05-05 02:31 | 35.79369 | 6.63983 | 37048 ft | 461 kts | 184° |
| 2026-05-05 02:32 | 35.73001 | 6.64382 | 37049 ft | 461 kts | 184° |
| 2026-05-05 02:32 | 35.66543 | 6.64785 | 37053 ft | 462 kts | 184° |
| 2026-05-05 02:33 | 35.60170 | 6.65184 | 37053 ft | 462 kts | 184° |
| 2026-05-05 02:33 | 35.53750 | 6.65583 | 37055 ft | 463 kts | 183° |
| 2026-05-05 02:34 | 35.48346 | 6.65918 | 37056 ft | 465 kts | 183° |
| 2026-05-05 02:34 | 35.41926 | 6.66318 | 37063 ft | 465 kts | 183° |
| 2026-05-05 02:35 | 35.35462 | 6.66720 | 37066 ft | 465 kts | 183° |
| 2026-05-05 02:35 | 35.29002 | 6.67117 | 37067 ft | 465 kts | 183° |
| 2026-05-05 02:36 | 35.22535 | 6.67518 | 37070 ft | 466 kts | 183° |
| 2026-05-05 02:36 | 35.16055 | 6.67922 | 37065 ft | 467 kts | 184° |
| 2026-05-05 02:37 | 35.09563 | 6.68324 | 37059 ft | 466 kts | 184° |
| 2026-05-05 02:37 | 35.03088 | 6.68721 | 37050 ft | 466 kts | 184° |
| 2026-05-05 02:38 | 34.96622 | 6.69118 | 37050 ft | 465 kts | 184° |
| 2026-05-05 02:38 | 34.90158 | 6.69515 | 37033 ft | 465 kts | 184° |
| 2026-05-05 02:39 | 34.83702 | 6.69910 | 37015 ft | 464 kts | 184° |
| 2026-05-05 02:39 | 34.77249 | 6.70307 | 37013 ft | 465 kts | 184° |
| 2026-05-05 02:40 | 34.70789 | 6.70709 | 37001 ft | 465 kts | 184° |
| 2026-05-05 02:40 | 34.64325 | 6.71113 | 36991 ft | 465 kts | 184° |
| 2026-05-05 02:41 | 34.57863 | 6.71515 | 36989 ft | 465 kts | 184° |
| 2026-05-05 02:41 | 34.51400 | 6.71915 | 36975 ft | 466 kts | 184° |
| 2026-05-05 02:42 | 34.44923 | 6.72315 | 36976 ft | 467 kts | 184° |
| 2026-05-05 02:42 | 34.38438 | 6.72715 | 36968 ft | 466 kts | 184° |
| 2026-05-05 02:43 | 34.31952 | 6.73116 | 36969 ft | 466 kts | 184° |
| 2026-05-05 02:43 | 34.25467 | 6.73516 | 36972 ft | 468 kts | 184° |
| 2026-05-05 02:44 | 34.18961 | 6.73915 | 36965 ft | 469 kts | 184° |
| 2026-05-05 02:44 | 34.12443 | 6.74316 | 36968 ft | 469 kts | 184° |
| 2026-05-05 02:45 | 34.05925 | 6.74717 | 36956 ft | 469 kts | 184° |
| 2026-05-05 02:45 | 33.99449 | 6.75114 | 36952 ft | 469 kts | 184° |
| 2026-05-05 02:46 | 33.92936 | 6.75512 | 36958 ft | 469 kts | 184° |
| 2026-05-05 02:46 | 33.86418 | 6.75910 | 36954 ft | 469 kts | 184° |
| 2026-05-05 02:47 | 33.79905 | 6.76307 | 36951 ft | 469 kts | 184° |
| 2026-05-05 02:47 | 33.73390 | 6.76704 | 36957 ft | 469 kts | 184° |
| 2026-05-05 02:48 | 33.66860 | 6.77100 | 36963 ft | 470 kts | 184° |
| 2026-05-05 02:48 | 33.60333 | 6.77496 | 36966 ft | 470 kts | 184° |
| 2026-05-05 02:49 | 33.53803 | 6.77892 | 36966 ft | 470 kts | 184° |
| 2026-05-05 02:49 | 33.47278 | 6.78173 | 36958 ft | 468 kts | 187° |
| 2026-05-05 02:50 | 33.40765 | 6.78238 | 36966 ft | 468 kts | 187° |
| 2026-05-05 02:50 | 33.34252 | 6.78272 | 36962 ft | 468 kts | 187° |
| 2026-05-05 02:51 | 33.27736 | 6.78328 | 36951 ft | 468 kts | 187° |
| 2026-05-05 02:51 | 33.21221 | 6.78399 | 36947 ft | 468 kts | 187° |
| 2026-05-05 02:52 | 33.14699 | 6.78475 | 36945 ft | 469 kts | 187° |
| 2026-05-05 02:52 | 33.08179 | 6.78551 | 36940 ft | 468 kts | 187° |
| 2026-05-05 02:53 | 33.01659 | 6.78626 | 36936 ft | 468 kts | 187° |
| 2026-05-05 02:53 | 32.95142 | 6.78701 | 36936 ft | 469 kts | 187° |
| 2026-05-05 02:54 | 32.88610 | 6.78774 | 36924 ft | 470 kts | 187° |
| 2026-05-05 02:54 | 32.82075 | 6.78848 | 36936 ft | 470 kts | 187° |
| 2026-05-05 02:55 | 32.75534 | 6.78923 | 36930 ft | 470 kts | 187° |
| 2026-05-05 02:55 | 32.68997 | 6.78998 | 36915 ft | 470 kts | 187° |
| 2026-05-05 02:56 | 32.62499 | 6.79070 | 36928 ft | 471 kts | 187° |
| 2026-05-05 02:56 | 32.55946 | 6.79144 | 36929 ft | 471 kts | 187° |
| 2026-05-05 02:57 | 32.49397 | 6.79218 | 36926 ft | 471 kts | 187° |
| 2026-05-05 02:57 | 32.42845 | 6.79292 | 36895 ft | 471 kts | 188° |
| 2026-05-05 02:58 | 32.36283 | 6.79365 | 36927 ft | 472 kts | 188° |
| 2026-05-05 02:58 | 32.29704 | 6.79439 | 36924 ft | 473 kts | 188° |
| 2026-05-05 02:59 | 32.23130 | 6.79514 | 36919 ft | 473 kts | 188° |
| 2026-05-05 02:59 | 32.16551 | 6.79589 | 36917 ft | 473 kts | 188° |
| 2026-05-05 03:00 | 32.09962 | 6.79661 | 36915 ft | 474 kts | 188° |
| 2026-05-05 03:00 | 32.03362 | 6.79735 | 36916 ft | 475 kts | 188° |
| 2026-05-05 03:01 | 31.96756 | 6.79809 | 36913 ft | 475 kts | 188° |
| 2026-05-05 03:01 | 31.90154 | 6.79883 | 36912 ft | 475 kts | 188° |
| 2026-05-05 03:02 | 31.83545 | 6.79956 | 36909 ft | 475 kts | 188° |
| 2026-05-05 03:02 | 31.76928 | 6.80029 | 36905 ft | 476 kts | 188° |
| 2026-05-05 03:03 | 31.70311 | 6.80103 | 36905 ft | 475 kts | 188° |
| 2026-05-05 03:03 | 31.63694 | 6.80176 | 36905 ft | 475 kts | 188° |
| 2026-05-05 03:04 | 31.57073 | 6.80249 | 36904 ft | 476 kts | 188° |
| 2026-05-05 03:04 | 31.50444 | 6.80321 | 36897 ft | 477 kts | 188° |
| 2026-05-05 03:05 | 31.43811 | 6.80395 | 36896 ft | 477 kts | 188° |
| 2026-05-05 03:05 | 31.37179 | 6.80469 | 36897 ft | 477 kts | 188° |
| 2026-05-05 03:06 | 31.30543 | 6.80542 | 36893 ft | 477 kts | 188° |
| 2026-05-05 03:06 | 31.23899 | 6.80614 | 36897 ft | 478 kts | 188° |
| 2026-05-05 03:07 | 31.17250 | 6.80687 | 36896 ft | 478 kts | 188° |
| 2026-05-05 03:07 | 31.10604 | 6.80760 | 36892 ft | 478 kts | 188° |
| 2026-05-05 03:08 | 31.04001 | 6.80832 | 36881 ft | 478 kts | 188° |
| 2026-05-05 03:08 | 30.97307 | 6.80905 | 36889 ft | 478 kts | 188° |
| 2026-05-05 03:09 | 30.90694 | 6.80977 | 36890 ft | 478 kts | 188° |
| 2026-05-05 03:09 | 30.83998 | 6.81051 | 36889 ft | 478 kts | 188° |
| 2026-05-05 03:10 | 30.77389 | 6.81123 | 36857 ft | 478 kts | 188° |
| 2026-05-05 03:10 | 30.70736 | 6.81195 | 36886 ft | 478 kts | 188° |
| 2026-05-05 03:11 | 30.64084 | 6.81267 | 36884 ft | 478 kts | 188° |
| 2026-05-05 03:11 | 30.57432 | 6.81339 | 36883 ft | 478 kts | 188° |
| 2026-05-05 03:12 | 30.50782 | 6.81411 | 36882 ft | 478 kts | 188° |
| 2026-05-05 03:12 | 30.44130 | 6.81482 | 36880 ft | 478 kts | 188° |
| 2026-05-05 03:13 | 30.37476 | 6.81553 | 36880 ft | 478 kts | 188° |
| 2026-05-05 03:13 | 30.30825 | 6.81624 | 36881 ft | 478 kts | 188° |
| 2026-05-05 03:14 | 30.24170 | 6.81698 | 36882 ft | 478 kts | 188° |
| 2026-05-05 03:14 | 30.17517 | 6.81769 | 36881 ft | 478 kts | 188° |
| 2026-05-05 03:15 | 30.10862 | 6.81840 | 36884 ft | 478 kts | 188° |
| 2026-05-05 03:15 | 30.04197 | 6.81911 | 36883 ft | 479 kts | 188° |
| 2026-05-05 03:16 | 29.97538 | 6.81982 | 36885 ft | 479 kts | 188° |
| 2026-05-05 03:16 | 29.90879 | 6.82054 | 36881 ft | 479 kts | 188° |
| 2026-05-05 03:17 | 29.84210 | 6.82124 | 36887 ft | 479 kts | 188° |
| 2026-05-05 03:17 | 29.77545 | 6.82195 | 36877 ft | 479 kts | 188° |
| 2026-05-05 03:18 | 29.70878 | 6.82267 | 36886 ft | 479 kts | 188° |
| 2026-05-05 03:18 | 29.64256 | 6.82338 | 36859 ft | 479 kts | 188° |
| 2026-05-05 03:19 | 29.54254 | 6.82443 | 36883 ft | 479 kts | 188° |
| 2026-05-05 03:19 | 29.47586 | 6.82513 | 36882 ft | 479 kts | 188° |
| 2026-05-05 03:20 | 29.40915 | 6.82585 | 36880 ft | 479 kts | 188° |
| 2026-05-05 03:20 | 29.35373 | 6.82643 | 36869 ft | 479 kts | 188° |
| 2026-05-05 03:21 | 29.28701 | 6.82711 | 36883 ft | 480 kts | 188° |
| 2026-05-05 03:21 | 29.22018 | 6.82782 | 36880 ft | 480 kts | 188° |
| 2026-05-05 03:22 | 29.15336 | 6.82856 | 36876 ft | 480 kts | 187° |
| 2026-05-05 03:22 | 29.08656 | 6.82926 | 36879 ft | 480 kts | 188° |
| 2026-05-05 03:23 | 29.01964 | 6.82995 | 36882 ft | 482 kts | 187° |
| 2026-05-05 03:23 | 28.95263 | 6.83063 | 36883 ft | 482 kts | 187° |
| 2026-05-05 03:24 | 28.88559 | 6.83133 | 36877 ft | 482 kts | 187° |
| 2026-05-05 03:24 | 28.81850 | 6.83206 | 36878 ft | 482 kts | 187° |
| 2026-05-05 03:25 | 28.75146 | 6.83276 | 36881 ft | 482 kts | 187° |
| 2026-05-05 03:25 | 28.68431 | 6.83343 | 36881 ft | 483 kts | 187° |
| 2026-05-05 03:26 | 28.61714 | 6.83414 | 36878 ft | 483 kts | 187° |
| 2026-05-05 03:26 | 28.54997 | 6.83484 | 36880 ft | 483 kts | 187° |
| 2026-05-05 03:27 | 28.48281 | 6.83555 | 36866 ft | 483 kts | 187° |
| 2026-05-05 03:27 | 28.41555 | 6.83624 | 36882 ft | 484 kts | 188° |
| 2026-05-05 03:28 | 28.34822 | 6.83693 | 36881 ft | 484 kts | 188° |
| 2026-05-05 03:28 | 28.28090 | 6.83763 | 36880 ft | 484 kts | 187° |
| 2026-05-05 03:29 | 28.21359 | 6.83833 | 36879 ft | 484 kts | 187° |
| 2026-05-05 03:29 | 28.14667 | 6.83912 | 36876 ft | 487 kts | 186° |
| 2026-05-05 03:30 | 28.07864 | 6.84499 | 36878 ft | 492 kts | 183° |
| 2026-05-05 03:30 | 28.01050 | 6.85244 | 36881 ft | 492 kts | 182° |
| 2026-05-05 03:31 | 27.94231 | 6.86019 | 36881 ft | 492 kts | 182° |
| 2026-05-05 03:31 | 27.87418 | 6.86784 | 36865 ft | 492 kts | 182° |
| 2026-05-05 03:32 | 27.80588 | 6.87539 | 36874 ft | 494 kts | 182° |
| 2026-05-05 03:32 | 27.73753 | 6.88294 | 36869 ft | 494 kts | 182° |
| 2026-05-05 03:33 | 27.66911 | 6.89048 | 36869 ft | 494 kts | 182° |
| 2026-05-05 03:33 | 27.60070 | 6.89801 | 36869 ft | 494 kts | 182° |
| 2026-05-05 03:34 | 27.53236 | 6.90554 | 36871 ft | 494 kts | 183° |
| 2026-05-05 03:34 | 27.46398 | 6.91304 | 36870 ft | 494 kts | 183° |
| 2026-05-05 03:35 | 27.39558 | 6.92054 | 36871 ft | 494 kts | 183° |
| 2026-05-05 03:35 | 27.32713 | 6.92804 | 36869 ft | 494 kts | 183° |
| 2026-05-05 03:36 | 27.25876 | 6.93552 | 36869 ft | 494 kts | 183° |
| 2026-05-05 03:36 | 27.19070 | 6.94295 | 36870 ft | 495 kts | 183° |
| 2026-05-05 03:37 | 27.12220 | 6.95043 | 36873 ft | 495 kts | 183° |
| 2026-05-05 03:37 | 27.05370 | 6.95790 | 36876 ft | 495 kts | 183° |
| 2026-05-05 03:38 | 26.98519 | 6.96536 | 36861 ft | 495 kts | 183° |
| 2026-05-05 03:38 | 26.91666 | 6.97281 | 36886 ft | 494 kts | 183° |
| 2026-05-05 03:39 | 26.84823 | 6.98027 | 36890 ft | 495 kts | 183° |
| 2026-05-05 03:39 | 26.77969 | 6.98773 | 36888 ft | 495 kts | 183° |
| 2026-05-05 03:40 | 26.71111 | 6.99514 | 36879 ft | 495 kts | 183° |
| 2026-05-05 03:40 | 26.64281 | 7.00255 | 36889 ft | 492 kts | 182° |
| 2026-05-05 03:41 | 26.57478 | 7.00990 | 36879 ft | 491 kts | 183° |
| 2026-05-05 03:41 | 26.50660 | 7.01726 | 36897 ft | 493 kts | 183° |
| 2026-05-05 03:42 | 26.43813 | 7.02463 | 36904 ft | 494 kts | 183° |
| 2026-05-05 03:42 | 26.36964 | 7.03198 | 36894 ft | 495 kts | 183° |
| 2026-05-05 03:43 | 26.30111 | 7.03935 | 36910 ft | 495 kts | 183° |
| 2026-05-05 03:43 | 26.23254 | 7.04670 | 36912 ft | 495 kts | 183° |
| 2026-05-05 03:44 | 26.16446 | 7.05401 | 36926 ft | 495 kts | 183° |
| 2026-05-05 03:44 | 26.09590 | 7.06137 | 36932 ft | 495 kts | 183° |
| 2026-05-05 03:45 | 26.02731 | 7.06870 | 36942 ft | 496 kts | 182° |
| 2026-05-05 03:45 | 25.95867 | 7.07611 | 36945 ft | 494 kts | 182° |
| 2026-05-05 03:46 | 25.89016 | 7.08360 | 36948 ft | 495 kts | 182° |
| 2026-05-05 03:46 | 25.82156 | 7.09110 | 36958 ft | 496 kts | 182° |
| 2026-05-05 03:47 | 25.75283 | 7.09859 | 36954 ft | 496 kts | 182° |
| 2026-05-05 03:47 | 25.68419 | 7.10606 | 36966 ft | 495 kts | 182° |
| 2026-05-05 03:48 | 25.61564 | 7.11351 | 36974 ft | 495 kts | 182° |
| 2026-05-05 03:48 | 25.54702 | 7.12095 | 36975 ft | 495 kts | 182° |
| 2026-05-05 03:49 | 25.47842 | 7.12838 | 36968 ft | 495 kts | 182° |
| 2026-05-05 03:49 | 25.40992 | 7.13580 | 36975 ft | 494 kts | 182° |
| 2026-05-05 03:50 | 25.34204 | 7.14314 | 36970 ft | 493 kts | 182° |
| 2026-05-05 03:50 | 25.27374 | 7.15052 | 36974 ft | 493 kts | 182° |
| 2026-05-05 03:51 | 25.20548 | 7.15787 | 36974 ft | 493 kts | 182° |
| 2026-05-05 03:51 | 25.13722 | 7.16522 | 36965 ft | 492 kts | 182° |
| 2026-05-05 03:52 | 25.06917 | 7.17256 | 36972 ft | 490 kts | 182° |
| 2026-05-05 03:52 | 25.00134 | 7.17987 | 36971 ft | 490 kts | 182° |
| 2026-05-05 03:53 | 24.93345 | 7.18714 | 36964 ft | 490 kts | 182° |
| 2026-05-05 03:53 | 24.86562 | 7.19444 | 36965 ft | 490 kts | 182° |
| 2026-05-05 03:54 | 24.79777 | 7.20173 | 36966 ft | 490 kts | 182° |
| 2026-05-05 03:54 | 24.72988 | 7.20903 | 36965 ft | 491 kts | 182° |
| 2026-05-05 03:55 | 24.66186 | 7.21633 | 36967 ft | 491 kts | 182° |
| 2026-05-05 03:55 | 24.59389 | 7.22361 | 36968 ft | 491 kts | 182° |
| 2026-05-05 03:56 | 24.52597 | 7.23088 | 36963 ft | 491 kts | 182° |
| 2026-05-05 03:56 | 24.45798 | 7.23816 | 36968 ft | 491 kts | 182° |
| 2026-05-05 03:57 | 24.39002 | 7.24542 | 36971 ft | 491 kts | 182° |
| 2026-05-05 03:57 | 24.32211 | 7.25267 | 36978 ft | 490 kts | 182° |
| 2026-05-05 03:58 | 24.25418 | 7.25991 | 36973 ft | 490 kts | 182° |
| 2026-05-05 03:58 | 24.18629 | 7.26715 | 36970 ft | 491 kts | 182° |
| 2026-05-05 03:59 | 24.11826 | 7.27438 | 36978 ft | 491 kts | 182° |
| 2026-05-05 03:59 | 24.05047 | 7.28160 | 36976 ft | 488 kts | 182° |
| 2026-05-05 04:00 | 23.98307 | 7.28877 | 36981 ft | 487 kts | 182° |
| 2026-05-05 04:00 | 23.91563 | 7.29591 | 36972 ft | 487 kts | 182° |
| 2026-05-05 04:01 | 23.84822 | 7.30304 | 36976 ft | 486 kts | 182° |
| 2026-05-05 04:01 | 23.78140 | 7.31011 | 36958 ft | 486 kts | 182° |
| 2026-05-05 04:02 | 23.71410 | 7.31722 | 36973 ft | 486 kts | 182° |
| 2026-05-05 04:02 | 23.64674 | 7.32433 | 36947 ft | 486 kts | 182° |
| 2026-05-05 04:03 | 23.57940 | 7.33144 | 36960 ft | 486 kts | 182° |
| 2026-05-05 04:03 | 23.51212 | 7.33856 | 36950 ft | 486 kts | 181° |
| 2026-05-05 04:04 | 23.44489 | 7.34746 | 36943 ft | 487 kts | 179° |
| 2026-05-05 04:04 | 23.37768 | 7.35746 | 36937 ft | 488 kts | 179° |
| 2026-05-05 04:05 | 23.31045 | 7.36746 | 36937 ft | 487 kts | 179° |
| 2026-05-05 04:05 | 23.24327 | 7.37725 | 36927 ft | 487 kts | 179° |
| 2026-05-05 04:06 | 23.17603 | 7.38693 | 36935 ft | 487 kts | 179° |
| 2026-05-05 04:06 | 23.10878 | 7.39659 | 36929 ft | 487 kts | 179° |
| 2026-05-05 04:07 | 23.04151 | 7.40626 | 36929 ft | 487 kts | 179° |
| 2026-05-05 04:07 | 22.97429 | 7.41591 | 36927 ft | 487 kts | 179° |
| 2026-05-05 04:08 | 22.90746 | 7.42550 | 36919 ft | 488 kts | 179° |
| 2026-05-05 04:08 | 22.84005 | 7.43516 | 36925 ft | 489 kts | 179° |
| 2026-05-05 04:09 | 22.77255 | 7.44483 | 36912 ft | 489 kts | 179° |
| 2026-05-05 04:09 | 22.70508 | 7.45448 | 36913 ft | 489 kts | 179° |
| 2026-05-05 04:10 | 22.63759 | 7.46413 | 36907 ft | 489 kts | 179° |
| 2026-05-05 04:10 | 22.58147 | 7.47214 | 36900 ft | 490 kts | 179° |
| 2026-05-05 04:11 | 22.51382 | 7.48178 | 36895 ft | 491 kts | 179° |
| 2026-05-05 04:11 | 22.44608 | 7.49143 | 36895 ft | 491 kts | 179° |
| 2026-05-05 04:12 | 22.37832 | 7.50109 | 36888 ft | 491 kts | 179° |
| 2026-05-05 04:12 | 22.31059 | 7.51072 | 36884 ft | 491 kts | 179° |
| 2026-05-05 04:13 | 22.24285 | 7.52035 | 36881 ft | 491 kts | 179° |
| 2026-05-05 04:13 | 22.17507 | 7.52997 | 36882 ft | 492 kts | 179° |
| 2026-05-05 04:14 | 22.10719 | 7.53959 | 36878 ft | 492 kts | 179° |
| 2026-05-05 04:14 | 22.03938 | 7.54921 | 36881 ft | 492 kts | 179° |
| 2026-05-05 04:15 | 21.97153 | 7.55881 | 36865 ft | 492 kts | 179° |
| 2026-05-05 04:15 | 21.90373 | 7.56840 | 36873 ft | 491 kts | 179° |
| 2026-05-05 04:16 | 21.83604 | 7.57796 | 36868 ft | 490 kts | 179° |
| 2026-05-05 04:16 | 21.76881 | 7.58745 | 36868 ft | 490 kts | 179° |
| 2026-05-05 04:17 | 21.70076 | 7.59704 | 36859 ft | 490 kts | 179° |
| 2026-05-05 04:17 | 21.63354 | 7.60651 | 36860 ft | 490 kts | 179° |
| 2026-05-05 04:18 | 21.56586 | 7.61603 | 36857 ft | 491 kts | 179° |
| 2026-05-05 04:18 | 21.49809 | 7.62556 | 36858 ft | 491 kts | 179° |
| 2026-05-05 04:19 | 21.43032 | 7.63508 | 36858 ft | 491 kts | 179° |
| 2026-05-05 04:19 | 21.36254 | 7.64459 | 36854 ft | 491 kts | 179° |
| 2026-05-05 04:20 | 21.29477 | 7.65409 | 36854 ft | 491 kts | 179° |
| 2026-05-05 04:20 | 21.22697 | 7.66359 | 36849 ft | 491 kts | 179° |
| 2026-05-05 04:21 | 21.15922 | 7.67307 | 36850 ft | 491 kts | 179° |
| 2026-05-05 04:21 | 21.09148 | 7.68254 | 36848 ft | 491 kts | 179° |
| 2026-05-05 04:22 | 21.02370 | 7.69201 | 36848 ft | 491 kts | 179° |
| 2026-05-05 04:22 | 20.95597 | 7.70115 | 36834 ft | 490 kts | 180° |
| 2026-05-05 04:23 | 20.88806 | 7.70728 | 36843 ft | 490 kts | 182° |
| 2026-05-05 04:23 | 20.82004 | 7.71224 | 36841 ft | 490 kts | 182° |
| 2026-05-05 04:24 | 20.75201 | 7.71737 | 36844 ft | 490 kts | 182° |
| 2026-05-05 04:25 | 20.64992 | 7.72551 | 36839 ft | 490 kts | 182° |
| 2026-05-05 04:25 | 20.58188 | 7.73101 | 36842 ft | 490 kts | 182° |
| 2026-05-05 04:26 | 20.51386 | 7.73649 | 36843 ft | 490 kts | 182° |
| 2026-05-05 04:26 | 20.44585 | 7.74196 | 36843 ft | 490 kts | 182° |
| 2026-05-05 04:27 | 20.37783 | 7.74742 | 36849 ft | 490 kts | 182° |
| 2026-05-05 04:27 | 20.30982 | 7.75288 | 36848 ft | 490 kts | 182° |
| 2026-05-05 04:28 | 20.24184 | 7.75833 | 36849 ft | 490 kts | 182° |
| 2026-05-05 04:28 | 20.17391 | 7.76377 | 36852 ft | 489 kts | 182° |
| 2026-05-05 04:29 | 20.10601 | 7.76921 | 36849 ft | 489 kts | 182° |
| 2026-05-05 04:29 | 20.03858 | 7.77459 | 36848 ft | 489 kts | 182° |
| 2026-05-05 04:30 | 19.97023 | 7.78005 | 36847 ft | 489 kts | 182° |
| 2026-05-05 04:30 | 19.90279 | 7.78543 | 36843 ft | 490 kts | 182° |
| 2026-05-05 04:31 | 19.83482 | 7.79085 | 36844 ft | 490 kts | 182° |
| 2026-05-05 04:31 | 19.76687 | 7.79627 | 36849 ft | 489 kts | 182° |
| 2026-05-05 04:32 | 19.69897 | 7.80167 | 36843 ft | 489 kts | 182° |
| 2026-05-05 04:32 | 19.63105 | 7.80707 | 36843 ft | 489 kts | 182° |
| 2026-05-05 04:33 | 19.56313 | 7.81246 | 36839 ft | 490 kts | 181° |
| 2026-05-05 04:33 | 19.49517 | 7.81787 | 36838 ft | 490 kts | 181° |
| 2026-05-05 04:34 | 19.42722 | 7.82344 | 36833 ft | 490 kts | 181° |
| 2026-05-05 04:34 | 19.35924 | 7.82908 | 36835 ft | 490 kts | 181° |
| 2026-05-05 04:35 | 19.29128 | 7.83471 | 36819 ft | 490 kts | 181° |
| 2026-05-05 04:35 | 19.22328 | 7.84033 | 36832 ft | 490 kts | 181° |
| 2026-05-05 04:36 | 19.15535 | 7.84593 | 36835 ft | 490 kts | 181° |
| 2026-05-05 04:36 | 19.08734 | 7.85153 | 36825 ft | 490 kts | 181° |
| 2026-05-05 04:37 | 19.01938 | 7.85711 | 36826 ft | 490 kts | 181° |
| 2026-05-05 04:37 | 18.95138 | 7.86270 | 36810 ft | 490 kts | 181° |
| 2026-05-05 04:38 | 18.88335 | 7.86828 | 36827 ft | 490 kts | 181° |
| 2026-05-05 04:38 | 18.81537 | 7.87387 | 36823 ft | 490 kts | 181° |
| 2026-05-05 04:39 | 18.74732 | 7.87944 | 36828 ft | 491 kts | 181° |
| 2026-05-05 04:39 | 18.67928 | 7.88502 | 36825 ft | 490 kts | 181° |
| 2026-05-05 04:40 | 18.61165 | 7.89055 | 36818 ft | 491 kts | 181° |
| 2026-05-05 04:40 | 18.54353 | 7.89611 | 36833 ft | 492 kts | 181° |
| 2026-05-05 04:41 | 18.47533 | 7.90169 | 36833 ft | 492 kts | 181° |
| 2026-05-05 04:41 | 18.40709 | 7.90727 | 36835 ft | 492 kts | 181° |
| 2026-05-05 04:42 | 18.33885 | 7.91283 | 36835 ft | 492 kts | 181° |
| 2026-05-05 04:42 | 18.27058 | 7.91840 | 36827 ft | 492 kts | 181° |
| 2026-05-05 04:43 | 18.20239 | 7.92395 | 36834 ft | 492 kts | 181° |
| 2026-05-05 04:43 | 18.13419 | 7.92950 | 36833 ft | 491 kts | 181° |
| 2026-05-05 04:44 | 18.06606 | 7.93504 | 36833 ft | 491 kts | 181° |
| 2026-05-05 04:44 | 17.99791 | 7.94057 | 36831 ft | 491 kts | 181° |
| 2026-05-05 04:45 | 17.92973 | 7.94611 | 36833 ft | 491 kts | 181° |
| 2026-05-05 04:45 | 17.86161 | 7.95165 | 36838 ft | 491 kts | 181° |
| 2026-05-05 04:46 | 17.79348 | 7.95718 | 36826 ft | 491 kts | 181° |
| 2026-05-05 04:46 | 17.72536 | 7.96269 | 36827 ft | 491 kts | 181° |
| 2026-05-05 04:47 | 17.65720 | 7.96820 | 36840 ft | 491 kts | 181° |
| 2026-05-05 04:47 | 17.58910 | 7.97371 | 36834 ft | 491 kts | 181° |
| 2026-05-05 04:48 | 17.52094 | 7.97922 | 36835 ft | 491 kts | 181° |
| 2026-05-05 04:48 | 17.45334 | 7.98468 | 36837 ft | 490 kts | 181° |
| 2026-05-05 04:49 | 17.38535 | 7.99017 | 36832 ft | 490 kts | 181° |
| 2026-05-05 04:49 | 17.31735 | 7.99567 | 36835 ft | 490 kts | 181° |
| 2026-05-05 04:50 | 17.24934 | 8.00114 | 36826 ft | 490 kts | 181° |
| 2026-05-05 04:50 | 17.18132 | 8.00661 | 36827 ft | 490 kts | 181° |
| 2026-05-05 04:51 | 17.11330 | 8.01209 | 36826 ft | 490 kts | 181° |
| 2026-05-05 04:51 | 17.04532 | 8.01756 | 36831 ft | 490 kts | 181° |
| 2026-05-05 04:52 | 16.97736 | 8.02304 | 36821 ft | 490 kts | 180° |
| 2026-05-05 04:52 | 16.90941 | 8.02926 | 36823 ft | 491 kts | 180° |
| 2026-05-05 04:53 | 16.84151 | 8.03593 | 36826 ft | 490 kts | 180° |
| 2026-05-05 04:53 | 16.77362 | 8.04260 | 36824 ft | 489 kts | 180° |
| 2026-05-05 04:54 | 16.70587 | 8.04917 | 36825 ft | 489 kts | 180° |
| 2026-05-05 04:54 | 16.63809 | 8.05568 | 36828 ft | 489 kts | 180° |
| 2026-05-05 04:55 | 16.57038 | 8.06219 | 36828 ft | 489 kts | 180° |
| 2026-05-05 04:55 | 16.50260 | 8.06870 | 36824 ft | 489 kts | 179° |
| 2026-05-05 04:56 | 16.43499 | 8.07520 | 36829 ft | 488 kts | 179° |
| 2026-05-05 04:56 | 16.36735 | 8.08169 | 36829 ft | 488 kts | 179° |
| 2026-05-05 04:57 | 16.30022 | 8.08812 | 36835 ft | 488 kts | 179° |
| 2026-05-05 04:57 | 16.23266 | 8.09460 | 36835 ft | 488 kts | 179° |
| 2026-05-05 04:58 | 16.16507 | 8.10107 | 36826 ft | 487 kts | 179° |
| 2026-05-05 04:58 | 16.09760 | 8.10753 | 36832 ft | 486 kts | 179° |
| 2026-05-05 04:59 | 16.03021 | 8.11397 | 36826 ft | 486 kts | 179° |
| 2026-05-05 04:59 | 15.96280 | 8.12041 | 36829 ft | 486 kts | 179° |
| 2026-05-05 05:00 | 15.90678 | 8.12576 | 36830 ft | 486 kts | 179° |
| 2026-05-05 05:00 | 15.83940 | 8.13219 | 36826 ft | 486 kts | 179° |
| 2026-05-05 05:01 | 15.77204 | 8.13862 | 36833 ft | 485 kts | 179° |
| 2026-05-05 05:01 | 15.70483 | 8.14503 | 36829 ft | 485 kts | 179° |
| 2026-05-05 05:02 | 15.63770 | 8.15142 | 36828 ft | 485 kts | 179° |
| 2026-05-05 05:02 | 15.57057 | 8.15781 | 36830 ft | 485 kts | 179° |
| 2026-05-05 05:03 | 15.50342 | 8.16420 | 36832 ft | 485 kts | 179° |
| 2026-05-05 05:03 | 15.43625 | 8.17059 | 36824 ft | 484 kts | 179° |
| 2026-05-05 05:04 | 15.36915 | 8.17696 | 36828 ft | 484 kts | 179° |
| 2026-05-05 05:04 | 15.30211 | 8.18333 | 36826 ft | 484 kts | 179° |
| 2026-05-05 05:05 | 15.23505 | 8.18969 | 36835 ft | 484 kts | 179° |
| 2026-05-05 05:05 | 15.16795 | 8.19605 | 36830 ft | 484 kts | 179° |
| 2026-05-05 05:06 | 15.10089 | 8.20241 | 36828 ft | 485 kts | 179° |
| 2026-05-05 05:06 | 15.03367 | 8.20877 | 36837 ft | 485 kts | 179° |
| 2026-05-05 05:07 | 14.96639 | 8.21517 | 36832 ft | 486 kts | 179° |
| 2026-05-05 05:07 | 14.89911 | 8.22157 | 36828 ft | 485 kts | 179° |
| 2026-05-05 05:08 | 14.83183 | 8.22796 | 36843 ft | 485 kts | 179° |
| 2026-05-05 05:08 | 14.76457 | 8.23434 | 36837 ft | 485 kts | 179° |
| 2026-05-05 05:09 | 14.69725 | 8.24072 | 36845 ft | 486 kts | 179° |
| 2026-05-05 05:09 | 14.63031 | 8.24706 | 36843 ft | 486 kts | 179° |
| 2026-05-05 05:10 | 14.56252 | 8.25348 | 36842 ft | 486 kts | 179° |
| 2026-05-05 05:10 | 14.49565 | 8.25981 | 36842 ft | 486 kts | 179° |
| 2026-05-05 05:11 | 14.42829 | 8.26619 | 36840 ft | 486 kts | 179° |
| 2026-05-05 05:11 | 14.36098 | 8.27255 | 36838 ft | 486 kts | 179° |
| 2026-05-05 05:12 | 14.29365 | 8.27891 | 36843 ft | 486 kts | 179° |
| 2026-05-05 05:12 | 14.22632 | 8.28527 | 36846 ft | 486 kts | 179° |
| 2026-05-05 05:13 | 14.15899 | 8.29162 | 36848 ft | 486 kts | 179° |
| 2026-05-05 05:13 | 14.09169 | 8.29797 | 36846 ft | 486 kts | 179° |
| 2026-05-05 05:14 | 14.02446 | 8.30431 | 36850 ft | 484 kts | 179° |
| 2026-05-05 05:14 | 13.95744 | 8.31063 | 36851 ft | 483 kts | 179° |
| 2026-05-05 05:15 | 13.89052 | 8.31692 | 36854 ft | 483 kts | 179° |
| 2026-05-05 05:15 | 13.82359 | 8.32321 | 36852 ft | 483 kts | 179° |
| 2026-05-05 05:16 | 13.75668 | 8.32951 | 36850 ft | 483 kts | 179° |
| 2026-05-05 05:16 | 13.68974 | 8.33578 | 36846 ft | 483 kts | 178° |
| 2026-05-05 05:17 | 13.62328 | 8.34201 | 36852 ft | 483 kts | 178° |
| 2026-05-05 05:17 | 13.55633 | 8.34828 | 36856 ft | 484 kts | 178° |
| 2026-05-05 05:18 | 13.48906 | 8.35456 | 36862 ft | 486 kts | 178° |
| 2026-05-05 05:18 | 13.42166 | 8.36087 | 36860 ft | 486 kts | 178° |
| 2026-05-05 05:19 | 13.35428 | 8.36717 | 36849 ft | 486 kts | 178° |
| 2026-05-05 05:19 | 13.28695 | 8.37347 | 36859 ft | 485 kts | 178° |
| 2026-05-05 05:20 | 13.21974 | 8.37975 | 36858 ft | 485 kts | 178° |
| 2026-05-05 05:20 | 13.15251 | 8.38602 | 36860 ft | 485 kts | 178° |
| 2026-05-05 05:21 | 13.08525 | 8.39230 | 36858 ft | 485 kts | 178° |
| 2026-05-05 05:21 | 13.01796 | 8.39886 | 36862 ft | 486 kts | 178° |
| 2026-05-05 05:22 | 12.95070 | 8.40559 | 36861 ft | 486 kts | 177° |
| 2026-05-05 05:22 | 12.88338 | 8.41232 | 36866 ft | 486 kts | 177° |
| 2026-05-05 05:23 | 12.81610 | 8.41901 | 36864 ft | 486 kts | 177° |
| 2026-05-05 05:23 | 12.74885 | 8.42568 | 36865 ft | 486 kts | 177° |
| 2026-05-05 05:24 | 12.68155 | 8.43233 | 36865 ft | 486 kts | 177° |
| 2026-05-05 05:24 | 12.61425 | 8.43898 | 36865 ft | 486 kts | 177° |
| 2026-05-05 05:25 | 12.54743 | 8.44559 | 36866 ft | 486 kts | 177° |
| 2026-05-05 05:25 | 12.48015 | 8.45224 | 36867 ft | 486 kts | 177° |
| 2026-05-05 05:26 | 12.41285 | 8.45888 | 36869 ft | 486 kts | 177° |
| 2026-05-05 05:26 | 12.34557 | 8.46552 | 36868 ft | 486 kts | 177° |
| 2026-05-05 05:27 | 12.27824 | 8.47216 | 36871 ft | 486 kts | 177° |
| 2026-05-05 05:27 | 12.17744 | 8.48209 | 36872 ft | 485 kts | 177° |
| 2026-05-05 05:28 | 12.11028 | 8.48871 | 36866 ft | 485 kts | 177° |
| 2026-05-05 05:28 | 12.04317 | 8.49534 | 36871 ft | 485 kts | 176° |
| 2026-05-05 05:29 | 11.97630 | 8.50534 | 36866 ft | 486 kts | 172° |
| 2026-05-05 05:29 | 11.90969 | 8.51784 | 36871 ft | 487 kts | 171° |
| 2026-05-05 05:30 | 11.84321 | 8.53034 | 36873 ft | 485 kts | 172° |
| 2026-05-05 05:30 | 11.77677 | 8.54245 | 36873 ft | 485 kts | 172° |
| 2026-05-05 05:31 | 11.71030 | 8.55434 | 36877 ft | 485 kts | 172° |
| 2026-05-05 05:31 | 11.64388 | 8.56618 | 36879 ft | 485 kts | 172° |
| 2026-05-05 05:32 | 11.57742 | 8.57804 | 36884 ft | 485 kts | 172° |
| 2026-05-05 05:32 | 11.51098 | 8.58990 | 36883 ft | 484 kts | 172° |
| 2026-05-05 05:33 | 11.44461 | 8.60175 | 36890 ft | 484 kts | 172° |
| 2026-05-05 05:33 | 11.37874 | 8.61350 | 36890 ft | 484 kts | 172° |
| 2026-05-05 05:34 | 11.31242 | 8.62532 | 36898 ft | 484 kts | 172° |
| 2026-05-05 05:34 | 11.24610 | 8.63714 | 36896 ft | 484 kts | 172° |
| 2026-05-05 05:35 | 11.17977 | 8.64896 | 36900 ft | 484 kts | 172° |
| 2026-05-05 05:35 | 11.11351 | 8.66075 | 36897 ft | 482 kts | 171° |
| 2026-05-05 05:36 | 11.04745 | 8.67251 | 36897 ft | 482 kts | 171° |
| 2026-05-05 05:36 | 10.98140 | 8.68426 | 36898 ft | 482 kts | 171° |
| 2026-05-05 05:37 | 10.91532 | 8.69601 | 36897 ft | 482 kts | 171° |
| 2026-05-05 05:37 | 10.84910 | 8.70624 | 36906 ft | 481 kts | 174° |
| 2026-05-05 05:38 | 10.78256 | 8.71368 | 36905 ft | 481 kts | 175° |
| 2026-05-05 05:38 | 10.71599 | 8.72075 | 36917 ft | 481 kts | 175° |
| 2026-05-05 05:39 | 10.64954 | 8.72809 | 36916 ft | 480 kts | 175° |
| 2026-05-05 05:39 | 10.58317 | 8.73563 | 36925 ft | 480 kts | 175° |
| 2026-05-05 05:40 | 10.51682 | 8.74322 | 36925 ft | 480 kts | 175° |
| 2026-05-05 05:40 | 10.45046 | 8.75080 | 36933 ft | 480 kts | 175° |
| 2026-05-05 05:41 | 10.38418 | 8.75836 | 36930 ft | 479 kts | 175° |
| 2026-05-05 05:41 | 10.31840 | 8.76586 | 36930 ft | 479 kts | 175° |
| 2026-05-05 05:42 | 10.25223 | 8.77340 | 36941 ft | 479 kts | 175° |
| 2026-05-05 05:42 | 10.18606 | 8.78093 | 36941 ft | 479 kts | 175° |
| 2026-05-05 05:43 | 10.11983 | 8.78847 | 36948 ft | 479 kts | 175° |
| 2026-05-05 05:43 | 10.05367 | 8.79599 | 36947 ft | 478 kts | 174° |
| 2026-05-05 05:44 | 9.98764 | 8.80350 | 36957 ft | 477 kts | 174° |
| 2026-05-05 05:44 | 9.92171 | 8.81100 | 36958 ft | 477 kts | 174° |
| 2026-05-05 05:45 | 9.85574 | 8.81849 | 36965 ft | 477 kts | 174° |
| 2026-05-05 05:45 | 9.78983 | 8.82598 | 36966 ft | 477 kts | 174° |
| 2026-05-05 05:46 | 9.72388 | 8.83346 | 36966 ft | 477 kts | 174° |
| 2026-05-05 05:46 | 9.65800 | 8.84094 | 36974 ft | 476 kts | 174° |
| 2026-05-05 05:47 | 9.59226 | 8.84930 | 36974 ft | 476 kts | 173° |
| 2026-05-05 05:47 | 9.52669 | 8.85862 | 36974 ft | 476 kts | 173° |
| 2026-05-05 05:48 | 9.47219 | 8.86643 | 36974 ft | 476 kts | 173° |
| 2026-05-05 05:48 | 9.39594 | 8.87720 | 36966 ft | 476 kts | 173° |
| 2026-05-05 05:49 | 9.33033 | 8.88638 | 36964 ft | 476 kts | 173° |
| 2026-05-05 05:49 | 9.26459 | 8.89556 | 36952 ft | 477 kts | 173° |
| 2026-05-05 05:50 | 9.19882 | 8.90474 | 36951 ft | 477 kts | 173° |
| 2026-05-05 05:50 | 9.14368 | 8.91245 | 36952 ft | 477 kts | 173° |
| 2026-05-05 05:51 | 9.07832 | 8.92157 | 36933 ft | 477 kts | 173° |
| 2026-05-05 05:51 | 9.01256 | 8.93076 | 36933 ft | 477 kts | 173° |
| 2026-05-05 05:52 | 8.94676 | 8.93993 | 36913 ft | 477 kts | 173° |
| 2026-05-05 05:52 | 8.88094 | 8.94911 | 36914 ft | 478 kts | 173° |
| 2026-05-05 05:53 | 8.81504 | 8.95830 | 36900 ft | 478 kts | 173° |
| 2026-05-05 05:53 | 8.74913 | 8.96749 | 36900 ft | 478 kts | 173° |
| 2026-05-05 05:54 | 8.68324 | 8.97667 | 36895 ft | 478 kts | 173° |
| 2026-05-05 05:54 | 8.61731 | 8.98585 | 36894 ft | 478 kts | 173° |
| 2026-05-05 05:55 | 8.55144 | 8.99502 | 36894 ft | 478 kts | 173° |
| 2026-05-05 05:55 | 8.48561 | 9.00418 | 36894 ft | 477 kts | 173° |
| 2026-05-05 05:56 | 8.41979 | 9.01331 | 36895 ft | 478 kts | 174° |
| 2026-05-05 05:56 | 8.35381 | 9.02166 | 36894 ft | 478 kts | 174° |
| 2026-05-05 05:57 | 8.28786 | 9.02957 | 36897 ft | 477 kts | 175° |
| 2026-05-05 05:57 | 8.22183 | 9.03743 | 36898 ft | 478 kts | 175° |
| 2026-05-05 05:58 | 8.15584 | 9.04531 | 36897 ft | 477 kts | 174° |
| 2026-05-05 05:58 | 8.08986 | 9.05328 | 36904 ft | 478 kts | 174° |
| 2026-05-05 05:59 | 8.02388 | 9.06205 | 36903 ft | 478 kts | 173° |
| 2026-05-05 05:59 | 7.95849 | 9.07110 | 36902 ft | 478 kts | 174° |
| 2026-05-05 06:00 | 7.89257 | 9.08018 | 36905 ft | 478 kts | 173° |
| 2026-05-05 06:00 | 7.82664 | 9.08918 | 36905 ft | 478 kts | 173° |
| 2026-05-05 06:01 | 7.76078 | 9.09814 | 36904 ft | 477 kts | 173° |
| 2026-05-05 06:01 | 7.69501 | 9.10707 | 36903 ft | 477 kts | 173° |
| 2026-05-05 06:02 | 7.62931 | 9.11600 | 36905 ft | 476 kts | 173° |
| 2026-05-05 06:02 | 7.56360 | 9.12493 | 36905 ft | 477 kts | 173° |
| 2026-05-05 06:03 | 7.49782 | 9.13387 | 36909 ft | 476 kts | 173° |
| 2026-05-05 06:03 | 7.43221 | 9.14278 | 36911 ft | 475 kts | 172° |
| 2026-05-05 06:04 | 7.36677 | 9.15167 | 36911 ft | 474 kts | 172° |
| 2026-05-05 06:04 | 7.30145 | 9.16054 | 36911 ft | 474 kts | 172° |
| 2026-05-05 06:05 | 7.23605 | 9.16942 | 36911 ft | 474 kts | 172° |
| 2026-05-05 06:05 | 7.17065 | 9.17829 | 36913 ft | 474 kts | 172° |
| 2026-05-05 06:06 | 7.10531 | 9.18715 | 36914 ft | 474 kts | 172° |
| 2026-05-05 06:06 | 7.04013 | 9.19372 | 36920 ft | 474 kts | 176° |
| 2026-05-05 06:07 | 6.97433 | 9.19772 | 36919 ft | 474 kts | 177° |
| 2026-05-05 06:07 | 6.90850 | 9.20152 | 36920 ft | 474 kts | 176° |
| 2026-05-05 06:08 | 6.84268 | 9.20564 | 36922 ft | 474 kts | 176° |
| 2026-05-05 06:08 | 6.77690 | 9.20996 | 36922 ft | 474 kts | 176° |
| 2026-05-05 06:09 | 6.71109 | 9.21432 | 36930 ft | 474 kts | 175° |
| 2026-05-05 06:09 | 6.64523 | 9.21868 | 36930 ft | 474 kts | 176° |
| 2026-05-05 06:10 | 6.57933 | 9.22303 | 36938 ft | 474 kts | 176° |
| 2026-05-05 06:10 | 6.51351 | 9.22737 | 36940 ft | 474 kts | 176° |
| 2026-05-05 06:11 | 6.44761 | 9.23171 | 36944 ft | 474 kts | 176° |
| 2026-05-05 06:11 | 6.38176 | 9.23604 | 36945 ft | 474 kts | 175° |
| 2026-05-05 06:12 | 6.31594 | 9.24037 | 36952 ft | 474 kts | 175° |
| 2026-05-05 06:12 | 6.25011 | 9.24471 | 36955 ft | 474 kts | 175° |
| 2026-05-05 06:13 | 6.18433 | 9.24905 | 36952 ft | 474 kts | 175° |
| 2026-05-05 06:13 | 6.11868 | 9.25514 | 36952 ft | 474 kts | 173° |
| 2026-05-05 06:14 | 6.05371 | 9.26297 | 36955 ft | 474 kts | 172° |
| 2026-05-05 06:14 | 5.98828 | 9.27096 | 36949 ft | 474 kts | 173° |
| 2026-05-05 06:15 | 5.92277 | 9.27873 | 36953 ft | 475 kts | 173° |
| 2026-05-05 06:15 | 5.85716 | 9.28636 | 36947 ft | 475 kts | 173° |
| 2026-05-05 06:16 | 5.79139 | 9.29398 | 36947 ft | 475 kts | 173° |
| 2026-05-05 06:16 | 5.75860 | 9.29778 | 37052 ft | 474 kts | 173° |
| 2026-05-05 06:16 | 5.72576 | 9.30160 | 37235 ft | 475 kts | 172° |
| 2026-05-05 06:17 | 5.69323 | 9.30712 | 37467 ft | 475 kts | 168° |
| 2026-05-05 06:17 | 5.66082 | 9.31362 | 37711 ft | 474 kts | 168° |
| 2026-05-05 06:17 | 5.62860 | 9.32042 | 37977 ft | 473 kts | 167° |
| 2026-05-05 06:17 | 5.59647 | 9.32738 | 38270 ft | 472 kts | 167° |
| 2026-05-05 06:18 | 5.56442 | 9.33441 | 38532 ft | 470 kts | 167° |
| 2026-05-05 06:18 | 5.53246 | 9.34143 | 38752 ft | 469 kts | 167° |
| 2026-05-05 06:18 | 5.50059 | 9.34843 | 38933 ft | 470 kts | 167° |
| 2026-05-05 06:18 | 5.46858 | 9.35544 | 38952 ft | 471 kts | 167° |
| 2026-05-05 06:19 | 5.40458 | 9.36939 | 38958 ft | 471 kts | 167° |
| 2026-05-05 06:19 | 5.34066 | 9.38327 | 38955 ft | 471 kts | 167° |
| 2026-05-05 06:20 | 5.27696 | 9.39710 | 38973 ft | 471 kts | 167° |
| 2026-05-05 06:20 | 5.21297 | 9.41099 | 38977 ft | 471 kts | 166° |
| 2026-05-05 06:21 | 5.14886 | 9.42492 | 38984 ft | 471 kts | 166° |
| 2026-05-05 06:21 | 5.08477 | 9.43884 | 38989 ft | 471 kts | 166° |
| 2026-05-05 06:22 | 5.02081 | 9.45272 | 38989 ft | 471 kts | 166° |
| 2026-05-05 06:22 | 4.95672 | 9.46664 | 38985 ft | 471 kts | 166° |
| 2026-05-05 06:23 | 4.89275 | 9.48052 | 38985 ft | 470 kts | 166° |
| 2026-05-05 06:23 | 4.82884 | 9.49438 | 38991 ft | 470 kts | 166° |
| 2026-05-05 06:24 | 4.76494 | 9.50824 | 38982 ft | 470 kts | 166° |
| 2026-05-05 06:24 | 4.70106 | 9.52209 | 38981 ft | 470 kts | 166° |
| 2026-05-05 06:25 | 4.63715 | 9.53594 | 38972 ft | 470 kts | 166° |
| 2026-05-05 06:25 | 4.57325 | 9.54980 | 38973 ft | 470 kts | 166° |
| 2026-05-05 06:26 | 4.50936 | 9.56370 | 38962 ft | 470 kts | 164° |
| 2026-05-05 06:26 | 4.44708 | 9.58308 | 38963 ft | 469 kts | 159° |
| 2026-05-05 06:27 | 4.35460 | 9.61559 | 38951 ft | 470 kts | 159° |
| 2026-05-05 06:28 | 4.29309 | 9.63753 | 38959 ft | 470 kts | 159° |
| 2026-05-05 06:28 | 4.23147 | 9.65941 | 38953 ft | 469 kts | 159° |
| 2026-05-05 06:29 | 4.16990 | 9.68121 | 38919 ft | 469 kts | 159° |
| 2026-05-05 06:29 | 4.10869 | 9.70285 | 38915 ft | 470 kts | 159° |
| 2026-05-05 06:30 | 4.04697 | 9.72467 | 38908 ft | 471 kts | 159° |
| 2026-05-05 06:30 | 3.98471 | 9.74507 | 38909 ft | 471 kts | 164° |
| 2026-05-05 06:31 | 3.92137 | 9.76137 | 38913 ft | 472 kts | 165° |
| 2026-05-05 06:31 | 3.85743 | 9.77695 | 38925 ft | 472 kts | 165° |
| 2026-05-05 06:32 | 3.79365 | 9.79236 | 38932 ft | 472 kts | 165° |
| 2026-05-05 06:32 | 3.72987 | 9.80784 | 38935 ft | 472 kts | 165° |
| 2026-05-05 06:33 | 3.66611 | 9.82337 | 38953 ft | 472 kts | 165° |
| 2026-05-05 06:33 | 3.60232 | 9.83892 | 38954 ft | 471 kts | 165° |
| 2026-05-05 06:34 | 3.54337 | 9.85329 | 38950 ft | 469 kts | 165° |
| 2026-05-05 06:34 | 3.48015 | 9.86870 | 38954 ft | 468 kts | 165° |
| 2026-05-05 06:35 | 3.41669 | 9.88417 | 38954 ft | 468 kts | 165° |
| 2026-05-05 06:35 | 3.35337 | 9.89960 | 38957 ft | 468 kts | 165° |
| 2026-05-05 06:36 | 3.29003 | 9.91502 | 38951 ft | 468 kts | 165° |
| 2026-05-05 06:36 | 3.22670 | 9.93045 | 38951 ft | 469 kts | 165° |
| 2026-05-05 06:37 | 3.16333 | 9.94588 | 38956 ft | 469 kts | 165° |
| 2026-05-05 06:37 | 3.09996 | 9.96131 | 38947 ft | 469 kts | 165° |
| 2026-05-05 06:38 | 3.03666 | 9.97673 | 38950 ft | 469 kts | 165° |
| 2026-05-05 06:38 | 2.97325 | 9.99216 | 38958 ft | 469 kts | 165° |
| 2026-05-05 06:39 | 2.90983 | 10.00760 | 38958 ft | 469 kts | 165° |
| 2026-05-05 06:39 | 2.84680 | 10.02294 | 38955 ft | 469 kts | 165° |
| 2026-05-05 06:40 | 2.78289 | 10.03850 | 38949 ft | 469 kts | 165° |
| 2026-05-05 06:40 | 2.71984 | 10.05384 | 38952 ft | 470 kts | 165° |
| 2026-05-05 06:41 | 2.65633 | 10.06929 | 38959 ft | 469 kts | 165° |
| 2026-05-05 06:41 | 2.59283 | 10.08474 | 38958 ft | 470 kts | 165° |
| 2026-05-05 06:42 | 2.53999 | 10.09759 | 38960 ft | 471 kts | 165° |
| 2026-05-05 06:42 | 2.47641 | 10.11306 | 38958 ft | 471 kts | 165° |
| 2026-05-05 06:43 | 2.41265 | 10.12856 | 38959 ft | 471 kts | 165° |
| 2026-05-05 06:43 | 2.34899 | 10.14404 | 38972 ft | 471 kts | 165° |
| 2026-05-05 06:44 | 2.28532 | 10.15953 | 38972 ft | 471 kts | 165° |
| 2026-05-05 06:44 | 2.22167 | 10.17500 | 38967 ft | 471 kts | 165° |
| 2026-05-05 06:45 | 2.15784 | 10.19052 | 38967 ft | 472 kts | 165° |
| 2026-05-05 06:45 | 2.09400 | 10.20604 | 38975 ft | 472 kts | 165° |
| 2026-05-05 06:46 | 2.03023 | 10.22153 | 38975 ft | 471 kts | 165° |
| 2026-05-05 06:46 | 1.96669 | 10.23697 | 38972 ft | 470 kts | 165° |
| 2026-05-05 06:47 | 1.90313 | 10.25242 | 38977 ft | 470 kts | 165° |
| 2026-05-05 06:47 | 1.83954 | 10.26789 | 38980 ft | 471 kts | 166° |
| 2026-05-05 06:48 | 1.77616 | 10.28329 | 38988 ft | 472 kts | 166° |
| 2026-05-05 06:48 | 1.71223 | 10.29881 | 38991 ft | 473 kts | 166° |
| 2026-05-05 06:49 | 1.64835 | 10.31432 | 38989 ft | 473 kts | 166° |
| 2026-05-05 06:49 | 1.58450 | 10.32982 | 38989 ft | 473 kts | 166° |
| 2026-05-05 06:50 | 1.52053 | 10.34535 | 38986 ft | 473 kts | 166° |
| 2026-05-05 06:50 | 1.45654 | 10.36089 | 38991 ft | 475 kts | 166° |
| 2026-05-05 06:51 | 1.39222 | 10.37650 | 38992 ft | 477 kts | 166° |
| 2026-05-05 06:51 | 1.32772 | 10.39216 | 38993 ft | 477 kts | 166° |
| 2026-05-05 06:52 | 1.26329 | 10.40779 | 38988 ft | 477 kts | 166° |
| 2026-05-05 06:52 | 1.19884 | 10.42343 | 38986 ft | 477 kts | 166° |
| 2026-05-05 06:53 | 1.13440 | 10.43908 | 38990 ft | 476 kts | 166° |
| 2026-05-05 06:53 | 1.07036 | 10.45462 | 38989 ft | 477 kts | 166° |
| 2026-05-05 06:54 | 1.00538 | 10.47039 | 38989 ft | 478 kts | 166° |
| 2026-05-05 06:54 | 0.94078 | 10.48607 | 38994 ft | 478 kts | 166° |
| 2026-05-05 06:55 | 0.87662 | 10.50164 | 38990 ft | 478 kts | 166° |
| 2026-05-05 06:55 | 0.81155 | 10.51744 | 38990 ft | 478 kts | 166° |
| 2026-05-05 06:56 | 0.74742 | 10.53302 | 38985 ft | 478 kts | 166° |
| 2026-05-05 06:56 | 0.68291 | 10.54869 | 38984 ft | 476 kts | 166° |
| 2026-05-05 06:57 | 0.61862 | 10.56431 | 38987 ft | 476 kts | 166° |
| 2026-05-05 06:57 | 0.55432 | 10.57993 | 38983 ft | 476 kts | 166° |
| 2026-05-05 06:58 | 0.48993 | 10.59556 | 38987 ft | 476 kts | 166° |
| 2026-05-05 06:58 | 0.42548 | 10.61123 | 38979 ft | 477 kts | 166° |
| 2026-05-05 06:59 | 0.36112 | 10.62687 | 38979 ft | 477 kts | 165° |
| 2026-05-05 06:59 | 0.29658 | 10.64255 | 38971 ft | 476 kts | 165° |
| 2026-05-05 07:00 | 0.23224 | 10.65819 | 38972 ft | 476 kts | 165° |
| 2026-05-05 07:00 | 0.16831 | 10.67374 | 38974 ft | 476 kts | 165° |
| 2026-05-05 07:01 | 0.10389 | 10.68939 | 38968 ft | 476 kts | 165° |
| 2026-05-05 07:01 | 0.03952 | 10.70503 | 38965 ft | 476 kts | 165° |
| 2026-05-05 07:02 | -0.02487 | 10.72069 | 38962 ft | 476 kts | 166° |
| 2026-05-05 07:02 | -0.08926 | 10.73633 | 38970 ft | 476 kts | 166° |
| 2026-05-05 07:03 | -0.15369 | 10.75196 | 38968 ft | 476 kts | 166° |
| 2026-05-05 07:03 | -0.21812 | 10.76760 | 38969 ft | 476 kts | 166° |
| 2026-05-05 07:04 | -0.28235 | 10.78319 | 38971 ft | 476 kts | 166° |
| 2026-05-05 07:04 | -0.34692 | 10.79886 | 38998 ft | 476 kts | 166° |
| 2026-05-05 07:05 | -0.41135 | 10.81450 | 38975 ft | 476 kts | 166° |
| 2026-05-05 07:05 | -0.47575 | 10.83014 | 38976 ft | 476 kts | 166° |
| 2026-05-05 07:06 | -0.54016 | 10.84577 | 38977 ft | 476 kts | 166° |
| 2026-05-05 07:06 | -0.60459 | 10.86141 | 38979 ft | 476 kts | 166° |
| 2026-05-05 07:07 | -0.66900 | 10.87705 | 38992 ft | 476 kts | 166° |
| 2026-05-05 07:07 | -0.73340 | 10.89268 | 38987 ft | 476 kts | 166° |
| 2026-05-05 07:08 | -0.79735 | 10.90820 | 38989 ft | 476 kts | 166° |
| 2026-05-05 07:08 | -0.86178 | 10.92382 | 38987 ft | 476 kts | 166° |
| 2026-05-05 07:09 | -0.92614 | 10.93944 | 38991 ft | 476 kts | 166° |
| 2026-05-05 07:09 | -0.99052 | 10.95505 | 38990 ft | 476 kts | 166° |
| 2026-05-05 07:10 | -1.05489 | 10.97067 | 38986 ft | 476 kts | 166° |
| 2026-05-05 07:10 | -1.11929 | 10.98630 | 38990 ft | 476 kts | 166° |
| 2026-05-05 07:11 | -1.18368 | 11.00192 | 38995 ft | 476 kts | 166° |
| 2026-05-05 07:11 | -1.24799 | 11.01752 | 39002 ft | 476 kts | 166° |
| 2026-05-05 07:12 | -1.31230 | 11.03313 | 39003 ft | 476 kts | 166° |
| 2026-05-05 07:12 | -1.37661 | 11.04873 | 39005 ft | 476 kts | 166° |
| 2026-05-05 07:13 | -1.44093 | 11.06434 | 39003 ft | 475 kts | 166° |
| 2026-05-05 07:13 | -1.50520 | 11.07994 | 39002 ft | 476 kts | 166° |
| 2026-05-05 07:14 | -1.56905 | 11.09544 | 39002 ft | 475 kts | 166° |
| 2026-05-05 07:14 | -1.63324 | 11.11102 | 39003 ft | 475 kts | 166° |
| 2026-05-05 07:15 | -1.69741 | 11.12660 | 39002 ft | 475 kts | 166° |
| 2026-05-05 07:15 | -1.76162 | 11.14218 | 39000 ft | 475 kts | 166° |
| 2026-05-05 07:16 | -1.82587 | 11.15778 | 38992 ft | 475 kts | 166° |
| 2026-05-05 07:16 | -1.89005 | 11.17336 | 38991 ft | 475 kts | 166° |
| 2026-05-05 07:17 | -1.95428 | 11.18896 | 38994 ft | 475 kts | 166° |
| 2026-05-05 07:17 | -2.01847 | 11.20455 | 38994 ft | 474 kts | 166° |
| 2026-05-05 07:18 | -2.08265 | 11.22013 | 38992 ft | 475 kts | 166° |
| 2026-05-05 07:18 | -2.14689 | 11.23574 | 38992 ft | 475 kts | 166° |
| 2026-05-05 07:19 | -2.21113 | 11.25134 | 38993 ft | 475 kts | 166° |
| 2026-05-05 07:19 | -2.27530 | 11.26693 | 38993 ft | 475 kts | 166° |
| 2026-05-05 07:20 | -2.33959 | 11.28255 | 38991 ft | 476 kts | 166° |
| 2026-05-05 07:20 | -2.40392 | 11.29817 | 38996 ft | 475 kts | 166° |
| 2026-05-05 07:21 | -2.46811 | 11.31377 | 38988 ft | 473 kts | 166° |
| 2026-05-05 07:21 | -2.53197 | 11.32929 | 38993 ft | 472 kts | 166° |
| 2026-05-05 07:22 | -2.59571 | 11.34478 | 38996 ft | 471 kts | 166° |
| 2026-05-05 07:22 | -2.65946 | 11.36028 | 38996 ft | 473 kts | 166° |
| 2026-05-05 07:23 | -2.72371 | 11.37590 | 39000 ft | 476 kts | 166° |
| 2026-05-05 07:23 | -2.78759 | 11.39143 | 39000 ft | 476 kts | 166° |
| 2026-05-05 07:24 | -2.85190 | 11.40706 | 39004 ft | 476 kts | 166° |
| 2026-05-05 07:24 | -2.91624 | 11.42270 | 39002 ft | 476 kts | 166° |
| 2026-05-05 07:25 | -2.98055 | 11.43834 | 39003 ft | 476 kts | 166° |
| 2026-05-05 07:25 | -3.04494 | 11.45401 | 39000 ft | 476 kts | 166° |
| 2026-05-05 07:26 | -3.10939 | 11.46969 | 38998 ft | 477 kts | 166° |
| 2026-05-05 07:26 | -3.17383 | 11.48536 | 38996 ft | 477 kts | 166° |
| 2026-05-05 07:27 | -3.23827 | 11.50104 | 38999 ft | 477 kts | 166° |
| 2026-05-05 07:27 | -3.30276 | 11.51674 | 38998 ft | 477 kts | 166° |
| 2026-05-05 07:28 | -3.36722 | 11.53243 | 38997 ft | 477 kts | 166° |
| 2026-05-05 07:28 | -3.43173 | 11.54813 | 38994 ft | 478 kts | 166° |
| 2026-05-05 07:29 | -3.49595 | 11.56376 | 38988 ft | 478 kts | 166° |
| 2026-05-05 07:29 | -3.56057 | 11.57950 | 38989 ft | 478 kts | 166° |
| 2026-05-05 07:30 | -3.62516 | 11.59522 | 38987 ft | 478 kts | 167° |
| 2026-05-05 07:30 | -3.72405 | 11.60713 | 38986 ft | 478 kts | 176° |
| 2026-05-05 07:31 | -3.79043 | 11.61170 | 38977 ft | 479 kts | 176° |
| 2026-05-05 07:31 | -3.85707 | 11.61602 | 38979 ft | 480 kts | 176° |
| 2026-05-05 07:32 | -3.92377 | 11.62046 | 38975 ft | 480 kts | 176° |
| 2026-05-05 07:32 | -3.99051 | 11.62501 | 38975 ft | 480 kts | 176° |
| 2026-05-05 07:33 | -4.05716 | 11.62958 | 38971 ft | 480 kts | 176° |
| 2026-05-05 07:33 | -4.11260 | 11.63338 | 38970 ft | 480 kts | 176° |
| 2026-05-05 07:34 | -4.17934 | 11.63795 | 38970 ft | 480 kts | 176° |
| 2026-05-05 07:34 | -4.24602 | 11.64252 | 38966 ft | 481 kts | 176° |
| 2026-05-05 07:35 | -4.31274 | 11.64709 | 38963 ft | 481 kts | 176° |
| 2026-05-05 07:35 | -4.37944 | 11.65166 | 38964 ft | 480 kts | 176° |
| 2026-05-05 07:36 | -4.44616 | 11.65624 | 38961 ft | 480 kts | 176° |
| 2026-05-05 07:36 | -4.51288 | 11.66082 | 38956 ft | 481 kts | 176° |
| 2026-05-05 07:37 | -4.57962 | 11.66540 | 38956 ft | 481 kts | 176° |
| 2026-05-05 07:37 | -4.64596 | 11.66996 | 38958 ft | 481 kts | 176° |
| 2026-05-05 07:38 | -4.71271 | 11.67454 | 38959 ft | 481 kts | 176° |
| 2026-05-05 07:38 | -4.77950 | 11.67913 | 38959 ft | 481 kts | 176° |
| 2026-05-05 07:39 | -4.84636 | 11.68373 | 38961 ft | 481 kts | 176° |
| 2026-05-05 07:39 | -4.91314 | 11.68832 | 38960 ft | 480 kts | 176° |
| 2026-05-05 07:40 | -4.97977 | 11.69289 | 38961 ft | 480 kts | 176° |
| 2026-05-05 07:40 | -5.04637 | 11.69747 | 38961 ft | 480 kts | 176° |
| 2026-05-05 07:41 | -5.11270 | 11.70400 | 38964 ft | 479 kts | 166° |
| 2026-05-05 07:41 | -5.17421 | 11.72888 | 38962 ft | 478 kts | 154° |
| 2026-05-05 07:42 | -5.23350 | 11.75941 | 38959 ft | 479 kts | 152° |
| 2026-05-05 07:42 | -5.29197 | 11.79084 | 38958 ft | 480 kts | 152° |
| 2026-05-05 07:43 | -5.35092 | 11.82230 | 38967 ft | 480 kts | 152° |
| 2026-05-05 07:43 | -5.40997 | 11.85348 | 38953 ft | 480 kts | 152° |
| 2026-05-05 07:44 | -5.46912 | 11.88459 | 38961 ft | 480 kts | 152° |
| 2026-05-05 07:44 | -5.52824 | 11.91568 | 38956 ft | 480 kts | 152° |
| 2026-05-05 07:45 | -5.58734 | 11.94678 | 38957 ft | 480 kts | 152° |
| 2026-05-05 07:45 | -5.64643 | 11.97789 | 38953 ft | 479 kts | 152° |
| 2026-05-05 07:46 | -5.70541 | 12.00895 | 38958 ft | 479 kts | 152° |
| 2026-05-05 07:46 | -5.76442 | 12.04004 | 38962 ft | 479 kts | 152° |
| 2026-05-05 07:47 | -5.82354 | 12.07119 | 38972 ft | 480 kts | 152° |
| 2026-05-05 07:47 | -5.88276 | 12.10240 | 38986 ft | 481 kts | 152° |
| 2026-05-05 07:48 | -5.94201 | 12.13363 | 38986 ft | 481 kts | 152° |
| 2026-05-05 07:48 | -6.00116 | 12.16482 | 38981 ft | 480 kts | 152° |
| 2026-05-05 07:49 | -6.06021 | 12.19596 | 38992 ft | 480 kts | 152° |
| 2026-05-05 07:49 | -6.11926 | 12.22711 | 38994 ft | 480 kts | 152° |
| 2026-05-05 07:50 | -6.17836 | 12.25830 | 38981 ft | 480 kts | 152° |
| 2026-05-05 07:50 | -6.23703 | 12.28926 | 38995 ft | 480 kts | 152° |
| 2026-05-05 07:51 | -6.29618 | 12.32049 | 38994 ft | 480 kts | 152° |
| 2026-05-05 07:51 | -6.35524 | 12.35168 | 38979 ft | 479 kts | 152° |
| 2026-05-05 07:52 | -6.41415 | 12.38280 | 38993 ft | 478 kts | 152° |
| 2026-05-05 07:52 | -6.47300 | 12.41389 | 38990 ft | 478 kts | 152° |
| 2026-05-05 07:53 | -6.53212 | 12.44514 | 38995 ft | 482 kts | 152° |
| 2026-05-05 07:53 | -6.59159 | 12.47658 | 38992 ft | 483 kts | 152° |
| 2026-05-05 07:54 | -6.65107 | 12.50802 | 38992 ft | 483 kts | 152° |
| 2026-05-05 07:54 | -6.71051 | 12.53947 | 38992 ft | 482 kts | 153° |
| 2026-05-05 07:55 | -6.76975 | 12.57081 | 38991 ft | 481 kts | 153° |
| 2026-05-05 07:55 | -6.82906 | 12.60220 | 38992 ft | 481 kts | 153° |
| 2026-05-05 07:56 | -6.88827 | 12.63354 | 38905 ft | 481 kts | 153° |
| 2026-05-05 07:56 | -6.91742 | 12.64898 | 38679 ft | 479 kts | 153° |
| 2026-05-05 07:56 | -6.94688 | 12.66458 | 38407 ft | 479 kts | 153° |
| 2026-05-05 07:57 | -6.97644 | 12.68023 | 38143 ft | 480 kts | 153° |
| 2026-05-05 07:57 | -7.00603 | 12.69590 | 37888 ft | 480 kts | 153° |
| 2026-05-05 07:57 | -7.03561 | 12.71157 | 37620 ft | 481 kts | 153° |
| 2026-05-05 07:57 | -7.06522 | 12.72726 | 37364 ft | 481 kts | 153° |
| 2026-05-05 07:58 | -7.09488 | 12.74298 | 37128 ft | 482 kts | 153° |
| 2026-05-05 07:58 | -7.12455 | 12.75870 | 36877 ft | 482 kts | 153° |
| 2026-05-05 07:58 | -7.15430 | 12.77447 | 36619 ft | 483 kts | 153° |
| 2026-05-05 07:58 | -7.18412 | 12.79028 | 36381 ft | 486 kts | 153° |
| 2026-05-05 07:59 | -7.21406 | 12.80616 | 36139 ft | 487 kts | 153° |
| 2026-05-05 07:59 | -7.24407 | 12.82207 | 35902 ft | 488 kts | 153° |
| 2026-05-05 07:59 | -7.27411 | 12.83800 | 35667 ft | 488 kts | 153° |
| 2026-05-05 07:59 | -7.30419 | 12.85396 | 35433 ft | 489 kts | 152° |
| 2026-05-05 08:00 | -7.33424 | 12.86989 | 35203 ft | 489 kts | 152° |
| 2026-05-05 08:00 | -7.36442 | 12.88591 | 34968 ft | 490 kts | 152° |
| 2026-05-05 08:00 | -7.39464 | 12.90194 | 34743 ft | 491 kts | 152° |
| 2026-05-05 08:00 | -7.42478 | 12.91794 | 34248 ft | 490 kts | 153° |
| 2026-05-05 08:01 | -7.45503 | 12.93400 | 33418 ft | 493 kts | 153° |
| 2026-05-05 08:01 | -7.48547 | 12.95016 | 32568 ft | 496 kts | 152° |
| 2026-05-05 08:01 | -7.51606 | 12.96640 | 31763 ft | 498 kts | 152° |
| 2026-05-05 08:01 | -7.54677 | 12.98271 | 31074 ft | 498 kts | 152° |
| 2026-05-05 08:02 | -7.57727 | 12.99890 | 30522 ft | 494 kts | 152° |
| 2026-05-05 08:02 | -7.60753 | 13.01498 | 29897 ft | 490 kts | 152° |
| 2026-05-05 08:02 | -7.63761 | 13.03097 | 29244 ft | 486 kts | 152° |
| 2026-05-05 08:02 | -7.66738 | 13.04679 | 28673 ft | 481 kts | 152° |
| 2026-05-05 08:03 | -7.69686 | 13.06246 | 28077 ft | 476 kts | 152° |
| 2026-05-05 08:03 | -7.72602 | 13.07797 | 27486 ft | 472 kts | 152° |
| 2026-05-05 08:03 | -7.75493 | 13.09334 | 26912 ft | 467 kts | 152° |
| 2026-05-05 08:03 | -7.78320 | 13.10838 | 26336 ft | 464 kts | 152° |
| 2026-05-05 08:04 | -7.81158 | 13.12347 | 25755 ft | 460 kts | 152° |
| 2026-05-05 08:04 | -7.83979 | 13.13848 | 25174 ft | 456 kts | 152° |
| 2026-05-05 08:04 | -7.86772 | 13.15335 | 24595 ft | 453 kts | 153° |
| 2026-05-05 08:04 | -7.89553 | 13.16815 | 24013 ft | 450 kts | 153° |
| 2026-05-05 08:05 | -7.92315 | 13.18285 | 23408 ft | 447 kts | 153° |
| 2026-05-05 08:05 | -7.95057 | 13.19744 | 22766 ft | 443 kts | 152° |
| 2026-05-05 08:05 | -7.97767 | 13.21187 | 22196 ft | 438 kts | 152° |
| 2026-05-05 08:05 | -8.00448 | 13.22615 | 21614 ft | 433 kts | 152° |
| 2026-05-05 08:06 | -8.03099 | 13.24027 | 21052 ft | 429 kts | 152° |
| 2026-05-05 08:06 | -8.05722 | 13.25423 | 20486 ft | 424 kts | 152° |
| 2026-05-05 08:06 | -8.08321 | 13.26807 | 19950 ft | 421 kts | 152° |
| 2026-05-05 08:06 | -8.10899 | 13.28181 | 19409 ft | 417 kts | 152° |
| 2026-05-05 08:07 | -8.13456 | 13.29542 | 18852 ft | 414 kts | 152° |
| 2026-05-05 08:07 | -8.15991 | 13.30894 | 18307 ft | 410 kts | 152° |
| 2026-05-05 08:07 | -8.18507 | 13.32235 | 17703 ft | 407 kts | 152° |
| 2026-05-05 08:07 | -8.20994 | 13.33560 | 17159 ft | 402 kts | 151° |
| 2026-05-05 08:08 | -8.23447 | 13.34868 | 16622 ft | 397 kts | 151° |
| 2026-05-05 08:08 | -8.25873 | 13.36162 | 16088 ft | 392 kts | 152° |
| 2026-05-05 08:08 | -8.28238 | 13.37424 | 15563 ft | 387 kts | 152° |
| 2026-05-05 08:08 | -8.30604 | 13.38687 | 15047 ft | 383 kts | 152° |
| 2026-05-05 08:09 | -8.32948 | 13.39937 | 14515 ft | 379 kts | 151° |
| 2026-05-05 08:09 | -8.35264 | 13.41173 | 14002 ft | 375 kts | 151° |
| 2026-05-05 08:09 | -8.37558 | 13.42397 | 13449 ft | 371 kts | 151° |
| 2026-05-05 08:09 | -8.39822 | 13.43605 | 12911 ft | 366 kts | 151° |
| 2026-05-05 08:10 | -8.42054 | 13.44796 | 12424 ft | 360 kts | 151° |
| 2026-05-05 08:10 | -8.44219 | 13.45952 | 11926 ft | 356 kts | 151° |
| 2026-05-05 08:10 | -8.46402 | 13.47116 | 11432 ft | 353 kts | 150° |
| 2026-05-05 08:10 | -8.48563 | 13.48270 | 10944 ft | 350 kts | 151° |
| 2026-05-05 08:11 | -8.50706 | 13.49416 | 10482 ft | 346 kts | 151° |
| 2026-05-05 08:11 | -8.52786 | 13.50527 | 10384 ft | 330 kts | 151° |
| 2026-05-05 08:11 | -8.54766 | 13.51583 | 10278 ft | 315 kts | 151° |
| 2026-05-05 08:11 | -8.56664 | 13.52596 | 10134 ft | 302 kts | 151° |
| 2026-05-05 08:12 | -8.58488 | 13.53570 | 10003 ft | 292 kts | 150° |
| 2026-05-05 08:12 | -8.60260 | 13.54517 | 9788 ft | 287 kts | 150° |
| 2026-05-05 08:12 | -8.62032 | 13.55466 | 9378 ft | 289 kts | 150° |
| 2026-05-05 08:12 | -8.63803 | 13.56413 | 9023 ft | 288 kts | 151° |
| 2026-05-05 08:13 | -8.65570 | 13.57359 | 8674 ft | 286 kts | 151° |
| 2026-05-05 08:13 | -8.67321 | 13.58297 | 8333 ft | 284 kts | 151° |
| 2026-05-05 08:13 | -8.69063 | 13.59228 | 7991 ft | 282 kts | 151° |
| 2026-05-05 08:13 | -8.70792 | 13.60153 | 7644 ft | 280 kts | 151° |
| 2026-05-05 08:14 | -8.72509 | 13.61072 | 7300 ft | 279 kts | 151° |
| 2026-05-05 08:14 | -8.74156 | 13.62085 | 6943 ft | 276 kts | 142° |
| 2026-05-05 08:14 | -8.75634 | 13.63331 | 6505 ft | 277 kts | 138° |
| 2026-05-05 08:14 | -8.77073 | 13.64644 | 6047 ft | 276 kts | 137° |
| 2026-05-05 08:15 | -8.78444 | 13.65924 | 5617 ft | 267 kts | 137° |
| 2026-05-05 08:15 | -8.79777 | 13.67178 | 5303 ft | 256 kts | 137° |
| 2026-05-05 08:15 | -8.81055 | 13.68383 | 5016 ft | 247 kts | 137° |
| 2026-05-05 08:15 | -8.82307 | 13.69567 | 4693 ft | 247 kts | 137° |
| 2026-05-05 08:16 | -8.83617 | 13.70694 | 4350 ft | 248 kts | 146° |
| 2026-05-05 08:16 | -8.85194 | 13.71376 | 4067 ft | 250 kts | 169° |
| 2026-05-05 08:16 | -8.86905 | 13.71326 | 3981 ft | 240 kts | 194° |
| 2026-05-05 08:16 | -8.88337 | 13.70613 | 3969 ft | 223 kts | 217° |
| 2026-05-05 08:17 | -8.89370 | 13.69528 | 3975 ft | 206 kts | 230° |
| 2026-05-05 08:17 | -8.90201 | 13.68424 | 3966 ft | 188 kts | 232° |
| 2026-05-05 08:17 | -8.90956 | 13.67387 | 3973 ft | 181 kts | 232° |
| 2026-05-05 08:17 | -8.91700 | 13.66370 | 3977 ft | 180 kts | 232° |
| 2026-05-05 08:18 | -8.92452 | 13.65348 | 3977 ft | 180 kts | 232° |
| 2026-05-05 08:18 | -8.93202 | 13.64334 | 3978 ft | 180 kts | 232° |
| 2026-05-05 08:18 | -8.93953 | 13.63322 | 3775 ft | 178 kts | 232° |
| 2026-05-05 08:18 | -8.94692 | 13.62321 | 3406 ft | 178 kts | 233° |
| 2026-05-05 08:19 | -8.95389 | 13.61309 | 3119 ft | 171 kts | 236° |
| 2026-05-05 08:19 | -8.96012 | 13.60328 | 2900 ft | 161 kts | 238° |
| 2026-05-05 08:19 | -8.96563 | 13.59376 | 2658 ft | 153 kts | 240° |
| 2026-05-05 08:19 | -8.97085 | 13.58453 | 2407 ft | 151 kts | 234° |
| 2026-05-05 08:20 | -8.97736 | 13.57643 | 2233 ft | 142 kts | 228° |
| 2026-05-05 08:20 | -8.98387 | 13.56919 | 2132 ft | 139 kts | 226° |
| 2026-05-05 08:20 | -8.99051 | 13.56209 | 1931 ft | 139 kts | 225° |
| 2026-05-05 08:20 | -8.99705 | 13.55496 | 1734 ft | 138 kts | 229° |
| 2026-05-05 08:21 | -9.00311 | 13.54746 | 1497 ft | 138 kts | 232° |
| 2026-05-05 08:21 | -9.00874 | 13.53970 | 1274 ft | 136 kts | 232° |
| 2026-05-05 08:21 | -9.01449 | 13.53210 | 1106 ft | 136 kts | 232° |
| 2026-05-05 08:21 | -9.02023 | 13.52447 | 981 ft | 137 kts | 232° |
| 2026-05-05 08:22 | -9.02599 | 13.51683 | 855 ft | 137 kts | 232° |
| 2026-05-05 08:22 | -9.03167 | 13.50916 | 702 ft | 136 kts | 232° |
| 2026-05-05 08:22 | -9.03739 | 13.50156 | 566 ft | 136 kts | 232° |
| 2026-05-05 08:22 | -9.04242 | 13.49474 | 544 ft | 96 kts | 233° |
| 2026-05-05 08:23 | -9.04533 | 13.49083 | 545 ft | 54 kts | 233° |
| 2026-05-05 08:23 | -9.04723 | 13.48866 | 556 ft | 24 kts | 208° |
| 2026-05-05 08:23 | -9.04833 | 13.48810 | 556 ft | 6 kts | 206° |
| 2026-05-05 08:23 | -9.04838 | 13.48808 | 555 ft | 0 kts | 205° |